<?xml version="1.0" encoding="UTF-8" standalone="no" ?>
<gpx xmlns="http://www.topografix.com/GPX/1/1" xmlns:xsi="http://www.w3.org/2001/XMLSchema-instance" xsi:schemaLocation="http://www.topografix.com/GPX/1/1 http://www.topografix.com/GPX/1/1/gpx.xsd" version="1.1" creator="VisuGPX - https://www.visugpx.com">
  <metadata>
    <name>Tracé actuel: 04 MAI 2022 09:12</name>
  </metadata>
  <trk>
    <name><![CDATA[Tracé actuel: 04 MAI 2022 09:12]]></name>
    <extensions>
      <line xmlns="http://www.topografix.com/GPX/gpx_style/0/2">
        <color>0000FF</color>
        <width>4</width>
      </line>
    </extensions>
    <trkseg>
      <trkpt lat="48.302" lon="6.79778">
        <ele>392.36</ele>
        <time>2022-05-04T07:12:04Z</time>
      </trkpt>
      <trkpt lat="48.30124" lon="6.79788">
        <ele>454.84</ele>
        <time>2022-05-04T07:13:15Z</time>
      </trkpt>
      <trkpt lat="48.30098" lon="6.7978">
        <ele>461.57</ele>
        <time>2022-05-04T07:13:32Z</time>
      </trkpt>
      <trkpt lat="48.30073" lon="6.79774">
        <ele>463.49</ele>
        <time>2022-05-04T07:13:48Z</time>
      </trkpt>
      <trkpt lat="48.30014" lon="6.79749">
        <ele>471.66</ele>
        <time>2022-05-04T07:14:32Z</time>
      </trkpt>
      <trkpt lat="48.30023" lon="6.79782">
        <ele>474.55</ele>
        <time>2022-05-04T07:14:58Z</time>
      </trkpt>
      <trkpt lat="48.30039" lon="6.79811">
        <ele>476.95</ele>
        <time>2022-05-04T07:15:13Z</time>
      </trkpt>
      <trkpt lat="48.30056" lon="6.79834">
        <ele>478.87</ele>
        <time>2022-05-04T07:15:27Z</time>
      </trkpt>
      <trkpt lat="48.3007" lon="6.79859">
        <ele>481.28</ele>
        <time>2022-05-04T07:15:43Z</time>
      </trkpt>
      <trkpt lat="48.30085" lon="6.79881">
        <ele>482.72</ele>
        <time>2022-05-04T07:15:59Z</time>
      </trkpt>
      <trkpt lat="48.301" lon="6.79928">
        <ele>487.53</ele>
        <time>2022-05-04T07:16:35Z</time>
      </trkpt>
      <trkpt lat="48.30103" lon="6.79964">
        <ele>489.93</ele>
        <time>2022-05-04T07:16:54Z</time>
      </trkpt>
      <trkpt lat="48.30098" lon="6.79996">
        <ele>491.37</ele>
        <time>2022-05-04T07:17:13Z</time>
      </trkpt>
      <trkpt lat="48.30095" lon="6.80028">
        <ele>493.77</ele>
        <time>2022-05-04T07:17:31Z</time>
      </trkpt>
      <trkpt lat="48.30091" lon="6.80063">
        <ele>495.7</ele>
        <time>2022-05-04T07:17:50Z</time>
      </trkpt>
      <trkpt lat="48.30087" lon="6.80106">
        <ele>498.1</ele>
        <time>2022-05-04T07:18:13Z</time>
      </trkpt>
      <trkpt lat="48.30074" lon="6.80144">
        <ele>500.5</ele>
        <time>2022-05-04T07:18:30Z</time>
      </trkpt>
      <trkpt lat="48.30069" lon="6.80181">
        <ele>502.91</ele>
        <time>2022-05-04T07:18:48Z</time>
      </trkpt>
      <trkpt lat="48.3006" lon="6.80217">
        <ele>504.83</ele>
        <time>2022-05-04T07:19:05Z</time>
      </trkpt>
      <trkpt lat="48.3005" lon="6.80254">
        <ele>506.27</ele>
        <time>2022-05-04T07:19:20Z</time>
      </trkpt>
      <trkpt lat="48.30036" lon="6.80282">
        <ele>507.71</ele>
        <time>2022-05-04T07:19:33Z</time>
      </trkpt>
      <trkpt lat="48.30019" lon="6.80299">
        <ele>509.16</ele>
        <time>2022-05-04T07:19:45Z</time>
      </trkpt>
      <trkpt lat="48.30002" lon="6.80314">
        <ele>511.08</ele>
        <time>2022-05-04T07:20:00Z</time>
      </trkpt>
      <trkpt lat="48.29984" lon="6.80325">
        <ele>513.48</ele>
        <time>2022-05-04T07:20:18Z</time>
      </trkpt>
      <trkpt lat="48.29956" lon="6.80319">
        <ele>517.81</ele>
        <time>2022-05-04T07:20:47Z</time>
      </trkpt>
      <trkpt lat="48.29922" lon="6.80288">
        <ele>522.13</ele>
        <time>2022-05-04T07:21:15Z</time>
      </trkpt>
      <trkpt lat="48.29893" lon="6.80253">
        <ele>525.02</ele>
        <time>2022-05-04T07:21:39Z</time>
      </trkpt>
      <trkpt lat="48.29869" lon="6.80223">
        <ele>527.9</ele>
        <time>2022-05-04T07:22:02Z</time>
      </trkpt>
      <trkpt lat="48.29843" lon="6.80186">
        <ele>530.3</ele>
        <time>2022-05-04T07:22:21Z</time>
      </trkpt>
      <trkpt lat="48.29822" lon="6.80154">
        <ele>533.19</ele>
        <time>2022-05-04T07:22:39Z</time>
      </trkpt>
      <trkpt lat="48.2981" lon="6.80118">
        <ele>536.07</ele>
        <time>2022-05-04T07:23:00Z</time>
      </trkpt>
      <trkpt lat="48.29806" lon="6.80089">
        <ele>537.03</ele>
        <time>2022-05-04T07:23:15Z</time>
      </trkpt>
      <trkpt lat="48.29804" lon="6.80046">
        <ele>538.48</ele>
        <time>2022-05-04T07:23:28Z</time>
      </trkpt>
      <trkpt lat="48.29805" lon="6.8001">
        <ele>539.92</ele>
        <time>2022-05-04T07:23:41Z</time>
      </trkpt>
      <trkpt lat="48.29811" lon="6.79977">
        <ele>540.88</ele>
        <time>2022-05-04T07:23:53Z</time>
      </trkpt>
      <trkpt lat="48.29814" lon="6.79944">
        <ele>540.88</ele>
        <time>2022-05-04T07:24:04Z</time>
      </trkpt>
      <trkpt lat="48.29807" lon="6.79912">
        <ele>540.4</ele>
        <time>2022-05-04T07:24:11Z</time>
      </trkpt>
      <trkpt lat="48.29796" lon="6.79886">
        <ele>538.96</ele>
        <time>2022-05-04T07:24:16Z</time>
      </trkpt>
      <trkpt lat="48.29786" lon="6.79861">
        <ele>538.48</ele>
        <time>2022-05-04T07:24:21Z</time>
      </trkpt>
      <trkpt lat="48.29776" lon="6.79832">
        <ele>537.99</ele>
        <time>2022-05-04T07:24:26Z</time>
      </trkpt>
      <trkpt lat="48.29765" lon="6.79805">
        <ele>537.51</ele>
        <time>2022-05-04T07:24:31Z</time>
      </trkpt>
      <trkpt lat="48.29752" lon="6.79783">
        <ele>537.99</ele>
        <time>2022-05-04T07:24:36Z</time>
      </trkpt>
      <trkpt lat="48.2974" lon="6.79761">
        <ele>537.99</ele>
        <time>2022-05-04T07:24:41Z</time>
      </trkpt>
      <trkpt lat="48.29728" lon="6.79736">
        <ele>537.51</ele>
        <time>2022-05-04T07:24:46Z</time>
      </trkpt>
      <trkpt lat="48.29715" lon="6.79712">
        <ele>537.51</ele>
        <time>2022-05-04T07:24:51Z</time>
      </trkpt>
      <trkpt lat="48.297" lon="6.7969">
        <ele>537.03</ele>
        <time>2022-05-04T07:24:56Z</time>
      </trkpt>
      <trkpt lat="48.29688" lon="6.79665">
        <ele>536.55</ele>
        <time>2022-05-04T07:25:01Z</time>
      </trkpt>
      <trkpt lat="48.29683" lon="6.79635">
        <ele>537.03</ele>
        <time>2022-05-04T07:25:06Z</time>
      </trkpt>
      <trkpt lat="48.29678" lon="6.79606">
        <ele>536.55</ele>
        <time>2022-05-04T07:25:11Z</time>
      </trkpt>
      <trkpt lat="48.29673" lon="6.79573">
        <ele>536.07</ele>
        <time>2022-05-04T07:25:17Z</time>
      </trkpt>
      <trkpt lat="48.29667" lon="6.79545">
        <ele>535.11</ele>
        <time>2022-05-04T07:25:22Z</time>
      </trkpt>
      <trkpt lat="48.2966" lon="6.79513">
        <ele>535.11</ele>
        <time>2022-05-04T07:25:28Z</time>
      </trkpt>
      <trkpt lat="48.29653" lon="6.79482">
        <ele>534.63</ele>
        <time>2022-05-04T07:25:34Z</time>
      </trkpt>
      <trkpt lat="48.29644" lon="6.79453">
        <ele>533.67</ele>
        <time>2022-05-04T07:25:39Z</time>
      </trkpt>
      <trkpt lat="48.29631" lon="6.79428">
        <ele>533.19</ele>
        <time>2022-05-04T07:25:44Z</time>
      </trkpt>
      <trkpt lat="48.29619" lon="6.79404">
        <ele>532.71</ele>
        <time>2022-05-04T07:25:49Z</time>
      </trkpt>
      <trkpt lat="48.29606" lon="6.79375">
        <ele>532.23</ele>
        <time>2022-05-04T07:25:55Z</time>
      </trkpt>
      <trkpt lat="48.29595" lon="6.79342">
        <ele>532.23</ele>
        <time>2022-05-04T07:26:01Z</time>
      </trkpt>
      <trkpt lat="48.29582" lon="6.79309">
        <ele>532.23</ele>
        <time>2022-05-04T07:26:06Z</time>
      </trkpt>
      <trkpt lat="48.29571" lon="6.79272">
        <ele>531.75</ele>
        <time>2022-05-04T07:26:11Z</time>
      </trkpt>
      <trkpt lat="48.29563" lon="6.79241">
        <ele>531.27</ele>
        <time>2022-05-04T07:26:16Z</time>
      </trkpt>
      <trkpt lat="48.29554" lon="6.7921">
        <ele>530.3</ele>
        <time>2022-05-04T07:26:21Z</time>
      </trkpt>
      <trkpt lat="48.29546" lon="6.79179">
        <ele>529.82</ele>
        <time>2022-05-04T07:26:26Z</time>
      </trkpt>
      <trkpt lat="48.29546" lon="6.79143">
        <ele>529.34</ele>
        <time>2022-05-04T07:26:31Z</time>
      </trkpt>
      <trkpt lat="48.29547" lon="6.79111">
        <ele>528.86</ele>
        <time>2022-05-04T07:26:36Z</time>
      </trkpt>
      <trkpt lat="48.29544" lon="6.79079">
        <ele>528.38</ele>
        <time>2022-05-04T07:26:41Z</time>
      </trkpt>
      <trkpt lat="48.29537" lon="6.79049">
        <ele>527.9</ele>
        <time>2022-05-04T07:26:46Z</time>
      </trkpt>
      <trkpt lat="48.29531" lon="6.79019">
        <ele>526.94</ele>
        <time>2022-05-04T07:26:52Z</time>
      </trkpt>
      <trkpt lat="48.29524" lon="6.78989">
        <ele>526.94</ele>
        <time>2022-05-04T07:26:58Z</time>
      </trkpt>
      <trkpt lat="48.29511" lon="6.78955">
        <ele>524.54</ele>
        <time>2022-05-04T07:27:08Z</time>
      </trkpt>
      <trkpt lat="48.29501" lon="6.78917">
        <ele>523.58</ele>
        <time>2022-05-04T07:27:14Z</time>
      </trkpt>
      <trkpt lat="48.29484" lon="6.78887">
        <ele>523.09</ele>
        <time>2022-05-04T07:27:21Z</time>
      </trkpt>
      <trkpt lat="48.29464" lon="6.78867">
        <ele>522.61</ele>
        <time>2022-05-04T07:27:26Z</time>
      </trkpt>
      <trkpt lat="48.29443" lon="6.78848">
        <ele>522.13</ele>
        <time>2022-05-04T07:27:31Z</time>
      </trkpt>
      <trkpt lat="48.29424" lon="6.78827">
        <ele>521.65</ele>
        <time>2022-05-04T07:27:36Z</time>
      </trkpt>
      <trkpt lat="48.29405" lon="6.78804">
        <ele>521.17</ele>
        <time>2022-05-04T07:27:42Z</time>
      </trkpt>
      <trkpt lat="48.29385" lon="6.78784">
        <ele>521.17</ele>
        <time>2022-05-04T07:27:47Z</time>
      </trkpt>
      <trkpt lat="48.29365" lon="6.78765">
        <ele>521.17</ele>
        <time>2022-05-04T07:27:52Z</time>
      </trkpt>
      <trkpt lat="48.29344" lon="6.78752">
        <ele>520.69</ele>
        <time>2022-05-04T07:27:57Z</time>
      </trkpt>
      <trkpt lat="48.29321" lon="6.78747">
        <ele>520.69</ele>
        <time>2022-05-04T07:28:02Z</time>
      </trkpt>
      <trkpt lat="48.29299" lon="6.78744">
        <ele>520.69</ele>
        <time>2022-05-04T07:28:07Z</time>
      </trkpt>
      <trkpt lat="48.29279" lon="6.78739">
        <ele>521.65</ele>
        <time>2022-05-04T07:28:13Z</time>
      </trkpt>
      <trkpt lat="48.29259" lon="6.78737">
        <ele>522.61</ele>
        <time>2022-05-04T07:28:19Z</time>
      </trkpt>
      <trkpt lat="48.29236" lon="6.78734">
        <ele>523.09</ele>
        <time>2022-05-04T07:28:25Z</time>
      </trkpt>
      <trkpt lat="48.29217" lon="6.78732">
        <ele>523.09</ele>
        <time>2022-05-04T07:28:30Z</time>
      </trkpt>
      <trkpt lat="48.29197" lon="6.78731">
        <ele>523.09</ele>
        <time>2022-05-04T07:28:35Z</time>
      </trkpt>
      <trkpt lat="48.29176" lon="6.78732">
        <ele>524.06</ele>
        <time>2022-05-04T07:28:41Z</time>
      </trkpt>
      <trkpt lat="48.29151" lon="6.78736">
        <ele>525.02</ele>
        <time>2022-05-04T07:28:51Z</time>
      </trkpt>
      <trkpt lat="48.29129" lon="6.7873">
        <ele>525.5</ele>
        <time>2022-05-04T07:29:02Z</time>
      </trkpt>
      <trkpt lat="48.29113" lon="6.78703">
        <ele>524.06</ele>
        <time>2022-05-04T07:29:13Z</time>
      </trkpt>
      <trkpt lat="48.29085" lon="6.78676">
        <ele>520.69</ele>
        <time>2022-05-04T07:30:15Z</time>
      </trkpt>
      <trkpt lat="48.29092" lon="6.78693">
        <ele>521.17</ele>
        <time>2022-05-04T07:30:29Z</time>
      </trkpt>
      <trkpt lat="48.29099" lon="6.78722">
        <ele>521.17</ele>
        <time>2022-05-04T07:30:38Z</time>
      </trkpt>
      <trkpt lat="48.29097" lon="6.7875">
        <ele>519.73</ele>
        <time>2022-05-04T07:30:44Z</time>
      </trkpt>
      <trkpt lat="48.29083" lon="6.78775">
        <ele>519.73</ele>
        <time>2022-05-04T07:30:50Z</time>
      </trkpt>
      <trkpt lat="48.29074" lon="6.78806">
        <ele>519.73</ele>
        <time>2022-05-04T07:30:56Z</time>
      </trkpt>
      <trkpt lat="48.29063" lon="6.78832">
        <ele>519.73</ele>
        <time>2022-05-04T07:31:01Z</time>
      </trkpt>
      <trkpt lat="48.29047" lon="6.7885">
        <ele>520.21</ele>
        <time>2022-05-04T07:31:07Z</time>
      </trkpt>
      <trkpt lat="48.29026" lon="6.78864">
        <ele>521.17</ele>
        <time>2022-05-04T07:31:13Z</time>
      </trkpt>
      <trkpt lat="48.2901" lon="6.78872">
        <ele>522.61</ele>
        <time>2022-05-04T07:31:19Z</time>
      </trkpt>
      <trkpt lat="48.28991" lon="6.78875">
        <ele>522.13</ele>
        <time>2022-05-04T07:31:25Z</time>
      </trkpt>
      <trkpt lat="48.28973" lon="6.78876">
        <ele>521.17</ele>
        <time>2022-05-04T07:31:31Z</time>
      </trkpt>
      <trkpt lat="48.28959" lon="6.78879">
        <ele>521.17</ele>
        <time>2022-05-04T07:31:36Z</time>
      </trkpt>
      <trkpt lat="48.28944" lon="6.78875">
        <ele>520.69</ele>
        <time>2022-05-04T07:31:42Z</time>
      </trkpt>
      <trkpt lat="48.28924" lon="6.78864">
        <ele>520.21</ele>
        <time>2022-05-04T07:31:47Z</time>
      </trkpt>
      <trkpt lat="48.28903" lon="6.78854">
        <ele>519.73</ele>
        <time>2022-05-04T07:31:52Z</time>
      </trkpt>
      <trkpt lat="48.28883" lon="6.78846">
        <ele>519.25</ele>
        <time>2022-05-04T07:31:56Z</time>
      </trkpt>
      <trkpt lat="48.28861" lon="6.78842">
        <ele>518.77</ele>
        <time>2022-05-04T07:32:00Z</time>
      </trkpt>
      <trkpt lat="48.28838" lon="6.78837">
        <ele>517.81</ele>
        <time>2022-05-04T07:32:04Z</time>
      </trkpt>
      <trkpt lat="48.28814" lon="6.78842">
        <ele>517.81</ele>
        <time>2022-05-04T07:32:09Z</time>
      </trkpt>
      <trkpt lat="48.28791" lon="6.78836">
        <ele>519.25</ele>
        <time>2022-05-04T07:32:14Z</time>
      </trkpt>
      <trkpt lat="48.2877" lon="6.78842">
        <ele>519.73</ele>
        <time>2022-05-04T07:32:20Z</time>
      </trkpt>
      <trkpt lat="48.28745" lon="6.78851">
        <ele>520.21</ele>
        <time>2022-05-04T07:32:26Z</time>
      </trkpt>
      <trkpt lat="48.28725" lon="6.78862">
        <ele>520.69</ele>
        <time>2022-05-04T07:32:31Z</time>
      </trkpt>
      <trkpt lat="48.28705" lon="6.78873">
        <ele>521.17</ele>
        <time>2022-05-04T07:32:36Z</time>
      </trkpt>
      <trkpt lat="48.28693" lon="6.78893">
        <ele>521.65</ele>
        <time>2022-05-04T07:32:41Z</time>
      </trkpt>
      <trkpt lat="48.28697" lon="6.78918">
        <ele>521.17</ele>
        <time>2022-05-04T07:32:47Z</time>
      </trkpt>
      <trkpt lat="48.28707" lon="6.78937">
        <ele>521.65</ele>
        <time>2022-05-04T07:32:52Z</time>
      </trkpt>
      <trkpt lat="48.28717" lon="6.78954">
        <ele>522.13</ele>
        <time>2022-05-04T07:32:57Z</time>
      </trkpt>
      <trkpt lat="48.28728" lon="6.78978">
        <ele>522.13</ele>
        <time>2022-05-04T07:33:01Z</time>
      </trkpt>
      <trkpt lat="48.28737" lon="6.79008">
        <ele>522.13</ele>
        <time>2022-05-04T07:33:05Z</time>
      </trkpt>
      <trkpt lat="48.28746" lon="6.79043">
        <ele>522.61</ele>
        <time>2022-05-04T07:33:11Z</time>
      </trkpt>
      <trkpt lat="48.28754" lon="6.79077">
        <ele>522.61</ele>
        <time>2022-05-04T07:33:17Z</time>
      </trkpt>
      <trkpt lat="48.28761" lon="6.79114">
        <ele>523.58</ele>
        <time>2022-05-04T07:33:22Z</time>
      </trkpt>
      <trkpt lat="48.28771" lon="6.79153">
        <ele>524.06</ele>
        <time>2022-05-04T07:33:27Z</time>
      </trkpt>
      <trkpt lat="48.28786" lon="6.79187">
        <ele>524.06</ele>
        <time>2022-05-04T07:33:33Z</time>
      </trkpt>
      <trkpt lat="48.28801" lon="6.79222">
        <ele>524.06</ele>
        <time>2022-05-04T07:33:39Z</time>
      </trkpt>
      <trkpt lat="48.28811" lon="6.7926">
        <ele>524.06</ele>
        <time>2022-05-04T07:33:44Z</time>
      </trkpt>
      <trkpt lat="48.28823" lon="6.79291">
        <ele>524.54</ele>
        <time>2022-05-04T07:33:50Z</time>
      </trkpt>
      <trkpt lat="48.28831" lon="6.79324">
        <ele>525.98</ele>
        <time>2022-05-04T07:33:56Z</time>
      </trkpt>
      <trkpt lat="48.28836" lon="6.79358">
        <ele>526.46</ele>
        <time>2022-05-04T07:34:02Z</time>
      </trkpt>
      <trkpt lat="48.28842" lon="6.79391">
        <ele>526.94</ele>
        <time>2022-05-04T07:34:08Z</time>
      </trkpt>
      <trkpt lat="48.2885" lon="6.79423">
        <ele>527.42</ele>
        <time>2022-05-04T07:34:15Z</time>
      </trkpt>
      <trkpt lat="48.28857" lon="6.79453">
        <ele>528.38</ele>
        <time>2022-05-04T07:34:22Z</time>
      </trkpt>
      <trkpt lat="48.28856" lon="6.79487">
        <ele>529.34</ele>
        <time>2022-05-04T07:34:30Z</time>
      </trkpt>
      <trkpt lat="48.28845" lon="6.79516">
        <ele>530.3</ele>
        <time>2022-05-04T07:34:38Z</time>
      </trkpt>
      <trkpt lat="48.28833" lon="6.79542">
        <ele>531.27</ele>
        <time>2022-05-04T07:34:46Z</time>
      </trkpt>
      <trkpt lat="48.28819" lon="6.79565">
        <ele>532.71</ele>
        <time>2022-05-04T07:34:53Z</time>
      </trkpt>
      <trkpt lat="48.28802" lon="6.79572">
        <ele>533.19</ele>
        <time>2022-05-04T07:35:01Z</time>
      </trkpt>
      <trkpt lat="48.28782" lon="6.79575">
        <ele>533.67</ele>
        <time>2022-05-04T07:35:09Z</time>
      </trkpt>
      <trkpt lat="48.2876" lon="6.79582">
        <ele>533.67</ele>
        <time>2022-05-04T07:35:17Z</time>
      </trkpt>
      <trkpt lat="48.28739" lon="6.79587">
        <ele>534.15</ele>
        <time>2022-05-04T07:35:24Z</time>
      </trkpt>
      <trkpt lat="48.28715" lon="6.796">
        <ele>533.67</ele>
        <time>2022-05-04T07:35:32Z</time>
      </trkpt>
      <trkpt lat="48.28693" lon="6.79614">
        <ele>534.15</ele>
        <time>2022-05-04T07:35:39Z</time>
      </trkpt>
      <trkpt lat="48.28672" lon="6.79637">
        <ele>535.59</ele>
        <time>2022-05-04T07:35:49Z</time>
      </trkpt>
      <trkpt lat="48.28654" lon="6.79663">
        <ele>537.03</ele>
        <time>2022-05-04T07:36:00Z</time>
      </trkpt>
      <trkpt lat="48.28635" lon="6.79694">
        <ele>537.99</ele>
        <time>2022-05-04T07:36:10Z</time>
      </trkpt>
      <trkpt lat="48.28617" lon="6.79723">
        <ele>538.48</ele>
        <time>2022-05-04T07:36:19Z</time>
      </trkpt>
      <trkpt lat="48.28598" lon="6.79765">
        <ele>538.96</ele>
        <time>2022-05-04T07:36:33Z</time>
      </trkpt>
      <trkpt lat="48.28585" lon="6.79821">
        <ele>539.92</ele>
        <time>2022-05-04T07:36:44Z</time>
      </trkpt>
      <trkpt lat="48.28573" lon="6.79864">
        <ele>541.84</ele>
        <time>2022-05-04T07:36:53Z</time>
      </trkpt>
      <trkpt lat="48.2856" lon="6.79896">
        <ele>541.84</ele>
        <time>2022-05-04T07:37:01Z</time>
      </trkpt>
      <trkpt lat="48.28544" lon="6.79927">
        <ele>542.32</ele>
        <time>2022-05-04T07:37:10Z</time>
      </trkpt>
      <trkpt lat="48.2855" lon="6.79985">
        <ele>542.8</ele>
        <time>2022-05-04T07:37:24Z</time>
      </trkpt>
      <trkpt lat="48.28564" lon="6.8002">
        <ele>541.36</ele>
        <time>2022-05-04T07:37:30Z</time>
      </trkpt>
      <trkpt lat="48.28577" lon="6.80059">
        <ele>540.4</ele>
        <time>2022-05-04T07:37:35Z</time>
      </trkpt>
      <trkpt lat="48.2859" lon="6.80092">
        <ele>539.44</ele>
        <time>2022-05-04T07:37:39Z</time>
      </trkpt>
      <trkpt lat="48.28604" lon="6.80119">
        <ele>538.96</ele>
        <time>2022-05-04T07:37:43Z</time>
      </trkpt>
      <trkpt lat="48.28615" lon="6.8015">
        <ele>538.48</ele>
        <time>2022-05-04T07:37:47Z</time>
      </trkpt>
      <trkpt lat="48.28622" lon="6.80187">
        <ele>538.96</ele>
        <time>2022-05-04T07:37:52Z</time>
      </trkpt>
      <trkpt lat="48.28628" lon="6.80224">
        <ele>539.44</ele>
        <time>2022-05-04T07:37:57Z</time>
      </trkpt>
      <trkpt lat="48.28629" lon="6.80258">
        <ele>539.92</ele>
        <time>2022-05-04T07:38:02Z</time>
      </trkpt>
      <trkpt lat="48.28625" lon="6.80291">
        <ele>540.4</ele>
        <time>2022-05-04T07:38:07Z</time>
      </trkpt>
      <trkpt lat="48.28617" lon="6.80323">
        <ele>540.88</ele>
        <time>2022-05-04T07:38:12Z</time>
      </trkpt>
      <trkpt lat="48.28609" lon="6.80355">
        <ele>540.88</ele>
        <time>2022-05-04T07:38:17Z</time>
      </trkpt>
      <trkpt lat="48.28602" lon="6.80387">
        <ele>540.4</ele>
        <time>2022-05-04T07:38:22Z</time>
      </trkpt>
      <trkpt lat="48.28593" lon="6.80417">
        <ele>539.92</ele>
        <time>2022-05-04T07:38:27Z</time>
      </trkpt>
      <trkpt lat="48.2858" lon="6.80445">
        <ele>538.96</ele>
        <time>2022-05-04T07:38:32Z</time>
      </trkpt>
      <trkpt lat="48.28567" lon="6.80473">
        <ele>537.51</ele>
        <time>2022-05-04T07:38:36Z</time>
      </trkpt>
      <trkpt lat="48.28551" lon="6.80502">
        <ele>536.55</ele>
        <time>2022-05-04T07:38:40Z</time>
      </trkpt>
      <trkpt lat="48.28537" lon="6.80528">
        <ele>533.67</ele>
        <time>2022-05-04T07:38:43Z</time>
      </trkpt>
      <trkpt lat="48.28524" lon="6.80547">
        <ele>531.75</ele>
        <time>2022-05-04T07:38:45Z</time>
      </trkpt>
      <trkpt lat="48.28507" lon="6.80565">
        <ele>527.9</ele>
        <time>2022-05-04T07:38:47Z</time>
      </trkpt>
      <trkpt lat="48.28489" lon="6.80583">
        <ele>524.54</ele>
        <time>2022-05-04T07:38:49Z</time>
      </trkpt>
      <trkpt lat="48.28469" lon="6.80598">
        <ele>523.09</ele>
        <time>2022-05-04T07:38:51Z</time>
      </trkpt>
      <trkpt lat="48.28448" lon="6.8061">
        <ele>521.65</ele>
        <time>2022-05-04T07:38:53Z</time>
      </trkpt>
      <trkpt lat="48.28429" lon="6.80619">
        <ele>521.65</ele>
        <time>2022-05-04T07:38:55Z</time>
      </trkpt>
      <trkpt lat="48.2841" lon="6.80633">
        <ele>521.65</ele>
        <time>2022-05-04T07:38:58Z</time>
      </trkpt>
      <trkpt lat="48.284" lon="6.80666">
        <ele>523.58</ele>
        <time>2022-05-04T07:39:02Z</time>
      </trkpt>
      <trkpt lat="48.28399" lon="6.80702">
        <ele>525.02</ele>
        <time>2022-05-04T07:39:07Z</time>
      </trkpt>
      <trkpt lat="48.28404" lon="6.80751">
        <ele>526.46</ele>
        <time>2022-05-04T07:39:15Z</time>
      </trkpt>
      <trkpt lat="48.28415" lon="6.80788">
        <ele>528.38</ele>
        <time>2022-05-04T07:39:23Z</time>
      </trkpt>
      <trkpt lat="48.28428" lon="6.80823">
        <ele>529.82</ele>
        <time>2022-05-04T07:39:30Z</time>
      </trkpt>
      <trkpt lat="48.28439" lon="6.80872">
        <ele>531.27</ele>
        <time>2022-05-04T07:39:40Z</time>
      </trkpt>
      <trkpt lat="48.28451" lon="6.80905">
        <ele>533.19</ele>
        <time>2022-05-04T07:39:49Z</time>
      </trkpt>
      <trkpt lat="48.28465" lon="6.80933">
        <ele>534.63</ele>
        <time>2022-05-04T07:39:58Z</time>
      </trkpt>
      <trkpt lat="48.2848" lon="6.80963">
        <ele>537.03</ele>
        <time>2022-05-04T07:40:09Z</time>
      </trkpt>
      <trkpt lat="48.28495" lon="6.80987">
        <ele>538.96</ele>
        <time>2022-05-04T07:40:22Z</time>
      </trkpt>
      <trkpt lat="48.2851" lon="6.81015">
        <ele>541.36</ele>
        <time>2022-05-04T07:40:37Z</time>
      </trkpt>
      <trkpt lat="48.2852" lon="6.81035">
        <ele>542.8</ele>
        <time>2022-05-04T07:40:49Z</time>
      </trkpt>
      <trkpt lat="48.28531" lon="6.81059">
        <ele>545.2</ele>
        <time>2022-05-04T07:41:00Z</time>
      </trkpt>
      <trkpt lat="48.28541" lon="6.81084">
        <ele>547.13</ele>
        <time>2022-05-04T07:41:12Z</time>
      </trkpt>
      <trkpt lat="48.28552" lon="6.81104">
        <ele>549.53</ele>
        <time>2022-05-04T07:41:23Z</time>
      </trkpt>
      <trkpt lat="48.28564" lon="6.81126">
        <ele>550.49</ele>
        <time>2022-05-04T07:41:34Z</time>
      </trkpt>
      <trkpt lat="48.28575" lon="6.81148">
        <ele>552.41</ele>
        <time>2022-05-04T07:41:45Z</time>
      </trkpt>
      <trkpt lat="48.28583" lon="6.81172">
        <ele>554.82</ele>
        <time>2022-05-04T07:41:59Z</time>
      </trkpt>
      <trkpt lat="48.2859" lon="6.81198">
        <ele>556.26</ele>
        <time>2022-05-04T07:42:16Z</time>
      </trkpt>
      <trkpt lat="48.28602" lon="6.81224">
        <ele>558.18</ele>
        <time>2022-05-04T07:42:31Z</time>
      </trkpt>
      <trkpt lat="48.28608" lon="6.81255">
        <ele>560.59</ele>
        <time>2022-05-04T07:42:47Z</time>
      </trkpt>
      <trkpt lat="48.28625" lon="6.81288">
        <ele>561.07</ele>
        <time>2022-05-04T07:42:59Z</time>
      </trkpt>
      <trkpt lat="48.28643" lon="6.81314">
        <ele>562.03</ele>
        <time>2022-05-04T07:43:11Z</time>
      </trkpt>
      <trkpt lat="48.28667" lon="6.81339">
        <ele>562.99</ele>
        <time>2022-05-04T07:43:24Z</time>
      </trkpt>
      <trkpt lat="48.28688" lon="6.81364">
        <ele>563.95</ele>
        <time>2022-05-04T07:43:36Z</time>
      </trkpt>
      <trkpt lat="48.28709" lon="6.8139">
        <ele>565.87</ele>
        <time>2022-05-04T07:43:47Z</time>
      </trkpt>
      <trkpt lat="48.2873" lon="6.81416">
        <ele>566.83</ele>
        <time>2022-05-04T07:44:00Z</time>
      </trkpt>
      <trkpt lat="48.28753" lon="6.8145">
        <ele>567.8</ele>
        <time>2022-05-04T07:44:53Z</time>
      </trkpt>
      <trkpt lat="48.28765" lon="6.81481">
        <ele>568.76</ele>
        <time>2022-05-04T07:45:06Z</time>
      </trkpt>
      <trkpt lat="48.28773" lon="6.81513">
        <ele>570.68</ele>
        <time>2022-05-04T07:45:20Z</time>
      </trkpt>
      <trkpt lat="48.28783" lon="6.81557">
        <ele>572.12</ele>
        <time>2022-05-04T07:45:31Z</time>
      </trkpt>
      <trkpt lat="48.28785" lon="6.81598">
        <ele>573.56</ele>
        <time>2022-05-04T07:45:43Z</time>
      </trkpt>
      <trkpt lat="48.28799" lon="6.81656">
        <ele>575.97</ele>
        <time>2022-05-04T07:46:03Z</time>
      </trkpt>
      <trkpt lat="48.28808" lon="6.81693">
        <ele>577.89</ele>
        <time>2022-05-04T07:46:19Z</time>
      </trkpt>
      <trkpt lat="48.28816" lon="6.81752">
        <ele>579.81</ele>
        <time>2022-05-04T07:46:33Z</time>
      </trkpt>
      <trkpt lat="48.28829" lon="6.81794">
        <ele>581.25</ele>
        <time>2022-05-04T07:46:46Z</time>
      </trkpt>
      <trkpt lat="48.28842" lon="6.81832">
        <ele>581.73</ele>
        <time>2022-05-04T07:46:57Z</time>
      </trkpt>
      <trkpt lat="48.28857" lon="6.81864">
        <ele>581.25</ele>
        <time>2022-05-04T07:47:08Z</time>
      </trkpt>
      <trkpt lat="48.2887" lon="6.81896">
        <ele>578.37</ele>
        <time>2022-05-04T07:47:16Z</time>
      </trkpt>
      <trkpt lat="48.2888" lon="6.8193">
        <ele>575.97</ele>
        <time>2022-05-04T07:47:21Z</time>
      </trkpt>
      <trkpt lat="48.28895" lon="6.81984">
        <ele>574.53</ele>
        <time>2022-05-04T07:47:25Z</time>
      </trkpt>
      <trkpt lat="48.28909" lon="6.82024">
        <ele>571.64</ele>
        <time>2022-05-04T07:47:28Z</time>
      </trkpt>
      <trkpt lat="48.28928" lon="6.82059">
        <ele>570.68</ele>
        <time>2022-05-04T07:47:31Z</time>
      </trkpt>
      <trkpt lat="48.28948" lon="6.82092">
        <ele>570.68</ele>
        <time>2022-05-04T07:47:34Z</time>
      </trkpt>
      <trkpt lat="48.28967" lon="6.82123">
        <ele>570.68</ele>
        <time>2022-05-04T07:47:37Z</time>
      </trkpt>
      <trkpt lat="48.28985" lon="6.8215">
        <ele>570.2</ele>
        <time>2022-05-04T07:47:41Z</time>
      </trkpt>
      <trkpt lat="48.29005" lon="6.82176">
        <ele>571.16</ele>
        <time>2022-05-04T07:47:46Z</time>
      </trkpt>
      <trkpt lat="48.29024" lon="6.82198">
        <ele>571.64</ele>
        <time>2022-05-04T07:47:52Z</time>
      </trkpt>
      <trkpt lat="48.29051" lon="6.8222">
        <ele>573.56</ele>
        <time>2022-05-04T07:49:46Z</time>
      </trkpt>
      <trkpt lat="48.29073" lon="6.82227">
        <ele>574.53</ele>
        <time>2022-05-04T07:49:55Z</time>
      </trkpt>
      <trkpt lat="48.29092" lon="6.82237">
        <ele>575.01</ele>
        <time>2022-05-04T07:50:01Z</time>
      </trkpt>
      <trkpt lat="48.29114" lon="6.8225">
        <ele>575.97</ele>
        <time>2022-05-04T07:50:09Z</time>
      </trkpt>
      <trkpt lat="48.29136" lon="6.82266">
        <ele>576.93</ele>
        <time>2022-05-04T07:50:17Z</time>
      </trkpt>
      <trkpt lat="48.29158" lon="6.82282">
        <ele>577.89</ele>
        <time>2022-05-04T07:50:25Z</time>
      </trkpt>
      <trkpt lat="48.29185" lon="6.82297">
        <ele>577.89</ele>
        <time>2022-05-04T07:50:33Z</time>
      </trkpt>
      <trkpt lat="48.29211" lon="6.82306">
        <ele>578.37</ele>
        <time>2022-05-04T07:50:39Z</time>
      </trkpt>
      <trkpt lat="48.29243" lon="6.82317">
        <ele>578.37</ele>
        <time>2022-05-04T07:50:45Z</time>
      </trkpt>
      <trkpt lat="48.29268" lon="6.82328">
        <ele>579.33</ele>
        <time>2022-05-04T07:50:51Z</time>
      </trkpt>
      <trkpt lat="48.29287" lon="6.82335">
        <ele>580.29</ele>
        <time>2022-05-04T07:50:57Z</time>
      </trkpt>
      <trkpt lat="48.29309" lon="6.82344">
        <ele>581.73</ele>
        <time>2022-05-04T07:51:04Z</time>
      </trkpt>
      <trkpt lat="48.29329" lon="6.82355">
        <ele>583.66</ele>
        <time>2022-05-04T07:51:11Z</time>
      </trkpt>
      <trkpt lat="48.29353" lon="6.8237">
        <ele>585.1</ele>
        <time>2022-05-04T07:51:18Z</time>
      </trkpt>
      <trkpt lat="48.29371" lon="6.82393">
        <ele>585.58</ele>
        <time>2022-05-04T07:51:25Z</time>
      </trkpt>
      <trkpt lat="48.29389" lon="6.82419">
        <ele>585.58</ele>
        <time>2022-05-04T07:51:34Z</time>
      </trkpt>
      <trkpt lat="48.29409" lon="6.82457">
        <ele>586.06</ele>
        <time>2022-05-04T07:51:43Z</time>
      </trkpt>
      <trkpt lat="48.29429" lon="6.82496">
        <ele>585.58</ele>
        <time>2022-05-04T07:51:49Z</time>
      </trkpt>
      <trkpt lat="48.29447" lon="6.82527">
        <ele>585.58</ele>
        <time>2022-05-04T07:51:54Z</time>
      </trkpt>
      <trkpt lat="48.29463" lon="6.82555">
        <ele>585.58</ele>
        <time>2022-05-04T07:51:59Z</time>
      </trkpt>
      <trkpt lat="48.29477" lon="6.82579">
        <ele>585.58</ele>
        <time>2022-05-04T07:52:03Z</time>
      </trkpt>
      <trkpt lat="48.29493" lon="6.82606">
        <ele>585.1</ele>
        <time>2022-05-04T07:52:08Z</time>
      </trkpt>
      <trkpt lat="48.29509" lon="6.82633">
        <ele>585.58</ele>
        <time>2022-05-04T07:52:13Z</time>
      </trkpt>
      <trkpt lat="48.29522" lon="6.8266">
        <ele>585.58</ele>
        <time>2022-05-04T07:52:18Z</time>
      </trkpt>
      <trkpt lat="48.29529" lon="6.8269">
        <ele>585.58</ele>
        <time>2022-05-04T07:52:23Z</time>
      </trkpt>
      <trkpt lat="48.29527" lon="6.82719">
        <ele>585.1</ele>
        <time>2022-05-04T07:52:27Z</time>
      </trkpt>
      <trkpt lat="48.2952" lon="6.82745">
        <ele>585.1</ele>
        <time>2022-05-04T07:52:31Z</time>
      </trkpt>
      <trkpt lat="48.29511" lon="6.82775">
        <ele>585.58</ele>
        <time>2022-05-04T07:52:36Z</time>
      </trkpt>
      <trkpt lat="48.29507" lon="6.82805">
        <ele>585.58</ele>
        <time>2022-05-04T07:52:41Z</time>
      </trkpt>
      <trkpt lat="48.29501" lon="6.82834">
        <ele>585.58</ele>
        <time>2022-05-04T07:52:46Z</time>
      </trkpt>
      <trkpt lat="48.29495" lon="6.82861">
        <ele>584.14</ele>
        <time>2022-05-04T07:52:50Z</time>
      </trkpt>
      <trkpt lat="48.29485" lon="6.82891">
        <ele>583.18</ele>
        <time>2022-05-04T07:52:54Z</time>
      </trkpt>
      <trkpt lat="48.29475" lon="6.82923">
        <ele>582.22</ele>
        <time>2022-05-04T07:52:58Z</time>
      </trkpt>
      <trkpt lat="48.29466" lon="6.82952">
        <ele>581.73</ele>
        <time>2022-05-04T07:53:02Z</time>
      </trkpt>
      <trkpt lat="48.2945" lon="6.82974">
        <ele>581.73</ele>
        <time>2022-05-04T07:53:06Z</time>
      </trkpt>
      <trkpt lat="48.29434" lon="6.82993">
        <ele>582.22</ele>
        <time>2022-05-04T07:53:10Z</time>
      </trkpt>
      <trkpt lat="48.29414" lon="6.83011">
        <ele>581.73</ele>
        <time>2022-05-04T07:53:15Z</time>
      </trkpt>
      <trkpt lat="48.29395" lon="6.83033">
        <ele>581.73</ele>
        <time>2022-05-04T07:53:20Z</time>
      </trkpt>
      <trkpt lat="48.29381" lon="6.8306">
        <ele>581.73</ele>
        <time>2022-05-04T07:53:25Z</time>
      </trkpt>
      <trkpt lat="48.29366" lon="6.83086">
        <ele>583.18</ele>
        <time>2022-05-04T07:53:31Z</time>
      </trkpt>
      <trkpt lat="48.29349" lon="6.83105">
        <ele>585.58</ele>
        <time>2022-05-04T07:53:38Z</time>
      </trkpt>
      <trkpt lat="48.29334" lon="6.8313">
        <ele>586.54</ele>
        <time>2022-05-04T07:53:45Z</time>
      </trkpt>
      <trkpt lat="48.29321" lon="6.83165">
        <ele>588.95</ele>
        <time>2022-05-04T07:53:53Z</time>
      </trkpt>
      <trkpt lat="48.29309" lon="6.83198">
        <ele>589.43</ele>
        <time>2022-05-04T07:53:59Z</time>
      </trkpt>
      <trkpt lat="48.29296" lon="6.83226">
        <ele>590.87</ele>
        <time>2022-05-04T07:54:05Z</time>
      </trkpt>
      <trkpt lat="48.29276" lon="6.83249">
        <ele>591.83</ele>
        <time>2022-05-04T07:54:12Z</time>
      </trkpt>
      <trkpt lat="48.29257" lon="6.83272">
        <ele>600.96</ele>
        <time>2022-05-04T07:54:20Z</time>
      </trkpt>
      <trkpt lat="48.29246" lon="6.83301">
        <ele>593.27</ele>
        <time>2022-05-04T07:55:06Z</time>
      </trkpt>
      <trkpt lat="48.29245" lon="6.83347">
        <ele>593.27</ele>
        <time>2022-05-04T07:55:16Z</time>
      </trkpt>
      <trkpt lat="48.29243" lon="6.83388">
        <ele>593.27</ele>
        <time>2022-05-04T07:55:23Z</time>
      </trkpt>
      <trkpt lat="48.29242" lon="6.83427">
        <ele>593.27</ele>
        <time>2022-05-04T07:55:30Z</time>
      </trkpt>
      <trkpt lat="48.29235" lon="6.83468">
        <ele>593.27</ele>
        <time>2022-05-04T07:55:36Z</time>
      </trkpt>
      <trkpt lat="48.29228" lon="6.83502">
        <ele>593.27</ele>
        <time>2022-05-04T07:55:41Z</time>
      </trkpt>
      <trkpt lat="48.29223" lon="6.83538">
        <ele>593.75</ele>
        <time>2022-05-04T07:55:47Z</time>
      </trkpt>
      <trkpt lat="48.29216" lon="6.83574">
        <ele>594.71</ele>
        <time>2022-05-04T07:55:53Z</time>
      </trkpt>
      <trkpt lat="48.2921" lon="6.83609">
        <ele>595.19</ele>
        <time>2022-05-04T07:55:59Z</time>
      </trkpt>
      <trkpt lat="48.29201" lon="6.83638">
        <ele>595.19</ele>
        <time>2022-05-04T07:56:06Z</time>
      </trkpt>
      <trkpt lat="48.29184" lon="6.83669">
        <ele>596.15</ele>
        <time>2022-05-04T07:56:14Z</time>
      </trkpt>
      <trkpt lat="48.29167" lon="6.83701">
        <ele>597.12</ele>
        <time>2022-05-04T07:56:21Z</time>
      </trkpt>
      <trkpt lat="48.29151" lon="6.8373">
        <ele>598.56</ele>
        <time>2022-05-04T07:56:27Z</time>
      </trkpt>
      <trkpt lat="48.29134" lon="6.83756">
        <ele>600.48</ele>
        <time>2022-05-04T07:56:34Z</time>
      </trkpt>
      <trkpt lat="48.29118" lon="6.83778">
        <ele>602.4</ele>
        <time>2022-05-04T07:56:40Z</time>
      </trkpt>
      <trkpt lat="48.29097" lon="6.83793">
        <ele>603.85</ele>
        <time>2022-05-04T07:56:48Z</time>
      </trkpt>
      <trkpt lat="48.29078" lon="6.83804">
        <ele>604.33</ele>
        <time>2022-05-04T07:56:55Z</time>
      </trkpt>
      <trkpt lat="48.29058" lon="6.83815">
        <ele>605.77</ele>
        <time>2022-05-04T07:57:03Z</time>
      </trkpt>
      <trkpt lat="48.29037" lon="6.83826">
        <ele>606.25</ele>
        <time>2022-05-04T07:57:12Z</time>
      </trkpt>
      <trkpt lat="48.29014" lon="6.83839">
        <ele>608.17</ele>
        <time>2022-05-04T07:57:21Z</time>
      </trkpt>
      <trkpt lat="48.28991" lon="6.83847">
        <ele>609.61</ele>
        <time>2022-05-04T07:57:31Z</time>
      </trkpt>
      <trkpt lat="48.28965" lon="6.83861">
        <ele>610.09</ele>
        <time>2022-05-04T07:57:39Z</time>
      </trkpt>
      <trkpt lat="48.28945" lon="6.83878">
        <ele>611.54</ele>
        <time>2022-05-04T07:57:46Z</time>
      </trkpt>
      <trkpt lat="48.28929" lon="6.83901">
        <ele>612.5</ele>
        <time>2022-05-04T07:57:55Z</time>
      </trkpt>
      <trkpt lat="48.28919" lon="6.8393">
        <ele>611.06</ele>
        <time>2022-05-04T07:58:03Z</time>
      </trkpt>
      <trkpt lat="48.28912" lon="6.83957">
        <ele>610.09</ele>
        <time>2022-05-04T07:58:08Z</time>
      </trkpt>
      <trkpt lat="48.28908" lon="6.83985">
        <ele>604.33</ele>
        <time>2022-05-04T07:58:52Z</time>
      </trkpt>
      <trkpt lat="48.28898" lon="6.84018">
        <ele>606.73</ele>
        <time>2022-05-04T07:59:01Z</time>
      </trkpt>
      <trkpt lat="48.28886" lon="6.84047">
        <ele>605.77</ele>
        <time>2022-05-04T07:59:05Z</time>
      </trkpt>
      <trkpt lat="48.28868" lon="6.84068">
        <ele>604.81</ele>
        <time>2022-05-04T07:59:09Z</time>
      </trkpt>
      <trkpt lat="48.28846" lon="6.84087">
        <ele>604.33</ele>
        <time>2022-05-04T07:59:13Z</time>
      </trkpt>
      <trkpt lat="48.28825" lon="6.84105">
        <ele>602.4</ele>
        <time>2022-05-04T07:59:17Z</time>
      </trkpt>
      <trkpt lat="48.28801" lon="6.84117">
        <ele>600.96</ele>
        <time>2022-05-04T07:59:21Z</time>
      </trkpt>
      <trkpt lat="48.28781" lon="6.84124">
        <ele>600</ele>
        <time>2022-05-04T07:59:24Z</time>
      </trkpt>
      <trkpt lat="48.28762" lon="6.84134">
        <ele>599.52</ele>
        <time>2022-05-04T07:59:27Z</time>
      </trkpt>
      <trkpt lat="48.28739" lon="6.84143">
        <ele>597.6</ele>
        <time>2022-05-04T07:59:31Z</time>
      </trkpt>
      <trkpt lat="48.28718" lon="6.84144">
        <ele>595.67</ele>
        <time>2022-05-04T07:59:35Z</time>
      </trkpt>
      <trkpt lat="48.28693" lon="6.84137">
        <ele>593.27</ele>
        <time>2022-05-04T07:59:39Z</time>
      </trkpt>
      <trkpt lat="48.28677" lon="6.8412">
        <ele>592.31</ele>
        <time>2022-05-04T07:59:42Z</time>
      </trkpt>
      <trkpt lat="48.28665" lon="6.841">
        <ele>591.35</ele>
        <time>2022-05-04T07:59:45Z</time>
      </trkpt>
      <trkpt lat="48.28649" lon="6.84083">
        <ele>590.39</ele>
        <time>2022-05-04T07:59:48Z</time>
      </trkpt>
      <trkpt lat="48.2863" lon="6.84067">
        <ele>588.95</ele>
        <time>2022-05-04T07:59:51Z</time>
      </trkpt>
      <trkpt lat="48.28611" lon="6.84054">
        <ele>587.98</ele>
        <time>2022-05-04T07:59:54Z</time>
      </trkpt>
      <trkpt lat="48.28589" lon="6.84039">
        <ele>587.5</ele>
        <time>2022-05-04T07:59:57Z</time>
      </trkpt>
      <trkpt lat="48.28569" lon="6.84024">
        <ele>587.02</ele>
        <time>2022-05-04T08:00:00Z</time>
      </trkpt>
      <trkpt lat="48.28551" lon="6.84013">
        <ele>586.54</ele>
        <time>2022-05-04T08:00:03Z</time>
      </trkpt>
      <trkpt lat="48.28527" lon="6.84002">
        <ele>586.06</ele>
        <time>2022-05-04T08:00:07Z</time>
      </trkpt>
      <trkpt lat="48.28503" lon="6.83991">
        <ele>586.06</ele>
        <time>2022-05-04T08:00:11Z</time>
      </trkpt>
      <trkpt lat="48.28481" lon="6.83978">
        <ele>585.58</ele>
        <time>2022-05-04T08:00:15Z</time>
      </trkpt>
      <trkpt lat="48.2846" lon="6.83965">
        <ele>586.06</ele>
        <time>2022-05-04T08:00:19Z</time>
      </trkpt>
      <trkpt lat="48.28438" lon="6.83947">
        <ele>585.58</ele>
        <time>2022-05-04T08:00:23Z</time>
      </trkpt>
      <trkpt lat="48.28417" lon="6.83932">
        <ele>585.58</ele>
        <time>2022-05-04T08:00:27Z</time>
      </trkpt>
      <trkpt lat="48.28398" lon="6.83918">
        <ele>585.58</ele>
        <time>2022-05-04T08:00:31Z</time>
      </trkpt>
      <trkpt lat="48.28378" lon="6.83907">
        <ele>586.06</ele>
        <time>2022-05-04T08:00:35Z</time>
      </trkpt>
      <trkpt lat="48.2836" lon="6.83895">
        <ele>585.58</ele>
        <time>2022-05-04T08:00:39Z</time>
      </trkpt>
      <trkpt lat="48.28341" lon="6.8388">
        <ele>585.58</ele>
        <time>2022-05-04T08:00:44Z</time>
      </trkpt>
      <trkpt lat="48.28321" lon="6.83865">
        <ele>585.1</ele>
        <time>2022-05-04T08:00:49Z</time>
      </trkpt>
      <trkpt lat="48.28302" lon="6.83845">
        <ele>584.62</ele>
        <time>2022-05-04T08:00:54Z</time>
      </trkpt>
      <trkpt lat="48.28282" lon="6.83823">
        <ele>583.66</ele>
        <time>2022-05-04T08:00:59Z</time>
      </trkpt>
      <trkpt lat="48.28261" lon="6.838">
        <ele>582.22</ele>
        <time>2022-05-04T08:01:03Z</time>
      </trkpt>
      <trkpt lat="48.28245" lon="6.8378">
        <ele>581.25</ele>
        <time>2022-05-04T08:01:06Z</time>
      </trkpt>
      <trkpt lat="48.2823" lon="6.83761">
        <ele>580.29</ele>
        <time>2022-05-04T08:01:09Z</time>
      </trkpt>
      <trkpt lat="48.28215" lon="6.8374">
        <ele>579.33</ele>
        <time>2022-05-04T08:01:12Z</time>
      </trkpt>
      <trkpt lat="48.28199" lon="6.83718">
        <ele>578.37</ele>
        <time>2022-05-04T08:01:15Z</time>
      </trkpt>
      <trkpt lat="48.28183" lon="6.83697">
        <ele>576.45</ele>
        <time>2022-05-04T08:01:18Z</time>
      </trkpt>
      <trkpt lat="48.28166" lon="6.83673">
        <ele>574.04</ele>
        <time>2022-05-04T08:01:21Z</time>
      </trkpt>
      <trkpt lat="48.2815" lon="6.83648">
        <ele>572.6</ele>
        <time>2022-05-04T08:01:24Z</time>
      </trkpt>
      <trkpt lat="48.28134" lon="6.83625">
        <ele>571.16</ele>
        <time>2022-05-04T08:01:27Z</time>
      </trkpt>
      <trkpt lat="48.28119" lon="6.83606">
        <ele>570.2</ele>
        <time>2022-05-04T08:01:31Z</time>
      </trkpt>
      <trkpt lat="48.28093" lon="6.83585">
        <ele>567.32</ele>
        <time>2022-05-04T08:02:23Z</time>
      </trkpt>
      <trkpt lat="48.28072" lon="6.83579">
        <ele>565.39</ele>
        <time>2022-05-04T08:02:27Z</time>
      </trkpt>
      <trkpt lat="48.28052" lon="6.83581">
        <ele>563.47</ele>
        <time>2022-05-04T08:02:30Z</time>
      </trkpt>
      <trkpt lat="48.28038" lon="6.83598">
        <ele>562.99</ele>
        <time>2022-05-04T08:02:34Z</time>
      </trkpt>
      <trkpt lat="48.28034" lon="6.83632">
        <ele>560.11</ele>
        <time>2022-05-04T08:02:39Z</time>
      </trkpt>
      <trkpt lat="48.2804" lon="6.83669">
        <ele>558.18</ele>
        <time>2022-05-04T08:02:43Z</time>
      </trkpt>
      <trkpt lat="48.28048" lon="6.83704">
        <ele>555.3</ele>
        <time>2022-05-04T08:02:47Z</time>
      </trkpt>
      <trkpt lat="48.28061" lon="6.83736">
        <ele>552.9</ele>
        <time>2022-05-04T08:02:51Z</time>
      </trkpt>
      <trkpt lat="48.28074" lon="6.83761">
        <ele>550.49</ele>
        <time>2022-05-04T08:02:54Z</time>
      </trkpt>
      <trkpt lat="48.28087" lon="6.8379">
        <ele>547.61</ele>
        <time>2022-05-04T08:02:57Z</time>
      </trkpt>
      <trkpt lat="48.28101" lon="6.83821">
        <ele>546.17</ele>
        <time>2022-05-04T08:03:00Z</time>
      </trkpt>
      <trkpt lat="48.28113" lon="6.83847">
        <ele>544.72</ele>
        <time>2022-05-04T08:03:03Z</time>
      </trkpt>
      <trkpt lat="48.28124" lon="6.83872">
        <ele>543.76</ele>
        <time>2022-05-04T08:03:07Z</time>
      </trkpt>
      <trkpt lat="48.28126" lon="6.83918">
        <ele>543.28</ele>
        <time>2022-05-04T08:03:50Z</time>
      </trkpt>
      <trkpt lat="48.28105" lon="6.83919">
        <ele>541.36</ele>
        <time>2022-05-04T08:03:57Z</time>
      </trkpt>
      <trkpt lat="48.28083" lon="6.83905">
        <ele>538.96</ele>
        <time>2022-05-04T08:04:01Z</time>
      </trkpt>
      <trkpt lat="48.28062" lon="6.83895">
        <ele>537.99</ele>
        <time>2022-05-04T08:04:04Z</time>
      </trkpt>
      <trkpt lat="48.2804" lon="6.83884">
        <ele>536.55</ele>
        <time>2022-05-04T08:04:07Z</time>
      </trkpt>
      <trkpt lat="48.28016" lon="6.83872">
        <ele>534.15</ele>
        <time>2022-05-04T08:04:10Z</time>
      </trkpt>
      <trkpt lat="48.27996" lon="6.83862">
        <ele>532.71</ele>
        <time>2022-05-04T08:04:13Z</time>
      </trkpt>
      <trkpt lat="48.27974" lon="6.83853">
        <ele>531.27</ele>
        <time>2022-05-04T08:04:41Z</time>
      </trkpt>
      <trkpt lat="48.27955" lon="6.83856">
        <ele>530.3</ele>
        <time>2022-05-04T08:04:46Z</time>
      </trkpt>
      <trkpt lat="48.27933" lon="6.83862">
        <ele>529.82</ele>
        <time>2022-05-04T08:04:51Z</time>
      </trkpt>
      <trkpt lat="48.27914" lon="6.83865">
        <ele>529.34</ele>
        <time>2022-05-04T08:04:55Z</time>
      </trkpt>
      <trkpt lat="48.27892" lon="6.8387">
        <ele>528.38</ele>
        <time>2022-05-04T08:04:59Z</time>
      </trkpt>
      <trkpt lat="48.27868" lon="6.83876">
        <ele>526.46</ele>
        <time>2022-05-04T08:05:03Z</time>
      </trkpt>
      <trkpt lat="48.27849" lon="6.8388">
        <ele>525.98</ele>
        <time>2022-05-04T08:05:06Z</time>
      </trkpt>
      <trkpt lat="48.27829" lon="6.83886">
        <ele>525.5</ele>
        <time>2022-05-04T08:05:09Z</time>
      </trkpt>
      <trkpt lat="48.27804" lon="6.83889">
        <ele>525.5</ele>
        <time>2022-05-04T08:05:13Z</time>
      </trkpt>
      <trkpt lat="48.27782" lon="6.83887">
        <ele>525.5</ele>
        <time>2022-05-04T08:05:17Z</time>
      </trkpt>
      <trkpt lat="48.27761" lon="6.83888">
        <ele>525.5</ele>
        <time>2022-05-04T08:05:21Z</time>
      </trkpt>
      <trkpt lat="48.27739" lon="6.83895">
        <ele>524.54</ele>
        <time>2022-05-04T08:05:25Z</time>
      </trkpt>
      <trkpt lat="48.27717" lon="6.83904">
        <ele>524.54</ele>
        <time>2022-05-04T08:05:29Z</time>
      </trkpt>
      <trkpt lat="48.27696" lon="6.83914">
        <ele>524.06</ele>
        <time>2022-05-04T08:05:33Z</time>
      </trkpt>
      <trkpt lat="48.27676" lon="6.83927">
        <ele>523.58</ele>
        <time>2022-05-04T08:05:37Z</time>
      </trkpt>
      <trkpt lat="48.27658" lon="6.83943">
        <ele>523.58</ele>
        <time>2022-05-04T08:05:41Z</time>
      </trkpt>
      <trkpt lat="48.2764" lon="6.83959">
        <ele>522.61</ele>
        <time>2022-05-04T08:05:45Z</time>
      </trkpt>
      <trkpt lat="48.27629" lon="6.83986">
        <ele>521.17</ele>
        <time>2022-05-04T08:05:50Z</time>
      </trkpt>
      <trkpt lat="48.27632" lon="6.84015">
        <ele>519.25</ele>
        <time>2022-05-04T08:05:54Z</time>
      </trkpt>
      <trkpt lat="48.2764" lon="6.84045">
        <ele>517.33</ele>
        <time>2022-05-04T08:05:58Z</time>
      </trkpt>
      <trkpt lat="48.2765" lon="6.84078">
        <ele>515.4</ele>
        <time>2022-05-04T08:06:02Z</time>
      </trkpt>
      <trkpt lat="48.2766" lon="6.8411">
        <ele>512.04</ele>
        <time>2022-05-04T08:06:06Z</time>
      </trkpt>
      <trkpt lat="48.27669" lon="6.84135">
        <ele>510.12</ele>
        <time>2022-05-04T08:06:09Z</time>
      </trkpt>
      <trkpt lat="48.27677" lon="6.84166">
        <ele>507.71</ele>
        <time>2022-05-04T08:06:12Z</time>
      </trkpt>
      <trkpt lat="48.27686" lon="6.84198">
        <ele>505.31</ele>
        <time>2022-05-04T08:06:17Z</time>
      </trkpt>
      <trkpt lat="48.27696" lon="6.84233">
        <ele>503.39</ele>
        <time>2022-05-04T08:07:13Z</time>
      </trkpt>
      <trkpt lat="48.27705" lon="6.84261">
        <ele>500.98</ele>
        <time>2022-05-04T08:07:17Z</time>
      </trkpt>
      <trkpt lat="48.27716" lon="6.84291">
        <ele>498.58</ele>
        <time>2022-05-04T08:07:21Z</time>
      </trkpt>
      <trkpt lat="48.27728" lon="6.84318">
        <ele>496.18</ele>
        <time>2022-05-04T08:07:25Z</time>
      </trkpt>
      <trkpt lat="48.27742" lon="6.84339">
        <ele>493.77</ele>
        <time>2022-05-04T08:07:30Z</time>
      </trkpt>
      <trkpt lat="48.2776" lon="6.84359">
        <ele>492.81</ele>
        <time>2022-05-04T08:07:35Z</time>
      </trkpt>
      <trkpt lat="48.27779" lon="6.8438">
        <ele>490.41</ele>
        <time>2022-05-04T08:07:39Z</time>
      </trkpt>
      <trkpt lat="48.27794" lon="6.84407">
        <ele>488.49</ele>
        <time>2022-05-04T08:07:43Z</time>
      </trkpt>
      <trkpt lat="48.27807" lon="6.84434">
        <ele>486.56</ele>
        <time>2022-05-04T08:07:47Z</time>
      </trkpt>
      <trkpt lat="48.27818" lon="6.84467">
        <ele>483.2</ele>
        <time>2022-05-04T08:07:51Z</time>
      </trkpt>
      <trkpt lat="48.27826" lon="6.84497">
        <ele>481.76</ele>
        <time>2022-05-04T08:07:54Z</time>
      </trkpt>
      <trkpt lat="48.27834" lon="6.84529">
        <ele>478.87</ele>
        <time>2022-05-04T08:07:58Z</time>
      </trkpt>
      <trkpt lat="48.27842" lon="6.84556">
        <ele>476.95</ele>
        <time>2022-05-04T08:08:01Z</time>
      </trkpt>
      <trkpt lat="48.27849" lon="6.84587">
        <ele>475.03</ele>
        <time>2022-05-04T08:08:05Z</time>
      </trkpt>
      <trkpt lat="48.27856" lon="6.84619">
        <ele>473.59</ele>
        <time>2022-05-04T08:08:09Z</time>
      </trkpt>
      <trkpt lat="48.2787" lon="6.84643">
        <ele>470.7</ele>
        <time>2022-05-04T08:08:15Z</time>
      </trkpt>
      <trkpt lat="48.27889" lon="6.8466">
        <ele>468.3</ele>
        <time>2022-05-04T08:08:23Z</time>
      </trkpt>
      <trkpt lat="48.2791" lon="6.84648">
        <ele>471.18</ele>
        <time>2022-05-04T08:08:35Z</time>
      </trkpt>
      <trkpt lat="48.27936" lon="6.84618">
        <ele>475.51</ele>
        <time>2022-05-04T08:08:59Z</time>
      </trkpt>
      <trkpt lat="48.27952" lon="6.84592">
        <ele>480.32</ele>
        <time>2022-05-04T08:09:20Z</time>
      </trkpt>
      <trkpt lat="48.27969" lon="6.84559">
        <ele>483.68</ele>
        <time>2022-05-04T08:09:41Z</time>
      </trkpt>
      <trkpt lat="48.2799" lon="6.84532">
        <ele>487.05</ele>
        <time>2022-05-04T08:10:01Z</time>
      </trkpt>
      <trkpt lat="48.27999" lon="6.84499">
        <ele>488.97</ele>
        <time>2022-05-04T08:10:21Z</time>
      </trkpt>
      <trkpt lat="48.28009" lon="6.84459">
        <ele>490.41</ele>
        <time>2022-05-04T08:10:36Z</time>
      </trkpt>
      <trkpt lat="48.28012" lon="6.84425">
        <ele>491.37</ele>
        <time>2022-05-04T08:10:48Z</time>
      </trkpt>
      <trkpt lat="48.28015" lon="6.84389">
        <ele>492.33</ele>
        <time>2022-05-04T08:11:01Z</time>
      </trkpt>
      <trkpt lat="48.28018" lon="6.84351">
        <ele>495.22</ele>
        <time>2022-05-04T08:11:15Z</time>
      </trkpt>
      <trkpt lat="48.28015" lon="6.84317">
        <ele>496.18</ele>
        <time>2022-05-04T08:11:28Z</time>
      </trkpt>
      <trkpt lat="48.28028" lon="6.84287">
        <ele>497.62</ele>
        <time>2022-05-04T08:11:39Z</time>
      </trkpt>
      <trkpt lat="48.28045" lon="6.8426">
        <ele>498.1</ele>
        <time>2022-05-04T08:11:50Z</time>
      </trkpt>
      <trkpt lat="48.2806" lon="6.84218">
        <ele>500.02</ele>
        <time>2022-05-04T08:12:08Z</time>
      </trkpt>
      <trkpt lat="48.28086" lon="6.84184">
        <ele>501.95</ele>
        <time>2022-05-04T08:12:23Z</time>
      </trkpt>
      <trkpt lat="48.28107" lon="6.84162">
        <ele>506.27</ele>
        <time>2022-05-04T08:12:52Z</time>
      </trkpt>
      <trkpt lat="48.28139" lon="6.84159">
        <ele>509.64</ele>
        <time>2022-05-04T08:13:11Z</time>
      </trkpt>
      <trkpt lat="48.28179" lon="6.84168">
        <ele>513</ele>
        <time>2022-05-04T08:13:27Z</time>
      </trkpt>
      <trkpt lat="48.28211" lon="6.84171">
        <ele>515.4</ele>
        <time>2022-05-04T08:13:50Z</time>
      </trkpt>
      <trkpt lat="48.28235" lon="6.8418">
        <ele>518.29</ele>
        <time>2022-05-04T08:14:07Z</time>
      </trkpt>
      <trkpt lat="48.28281" lon="6.84185">
        <ele>522.61</ele>
        <time>2022-05-04T08:14:37Z</time>
      </trkpt>
      <trkpt lat="48.28322" lon="6.84191">
        <ele>525.98</ele>
        <time>2022-05-04T08:14:58Z</time>
      </trkpt>
      <trkpt lat="48.28356" lon="6.84206">
        <ele>527.9</ele>
        <time>2022-05-04T08:15:19Z</time>
      </trkpt>
      <trkpt lat="48.28395" lon="6.84222">
        <ele>532.23</ele>
        <time>2022-05-04T08:15:47Z</time>
      </trkpt>
      <trkpt lat="48.28442" lon="6.84233">
        <ele>536.55</ele>
        <time>2022-05-04T08:16:17Z</time>
      </trkpt>
      <trkpt lat="48.28474" lon="6.84247">
        <ele>539.92</ele>
        <time>2022-05-04T08:16:35Z</time>
      </trkpt>
      <trkpt lat="48.28488" lon="6.84276">
        <ele>540.4</ele>
        <time>2022-05-04T08:16:47Z</time>
      </trkpt>
      <trkpt lat="48.2847" lon="6.84282">
        <ele>540.4</ele>
        <time>2022-05-04T08:16:59Z</time>
      </trkpt>
      <trkpt lat="48.28447" lon="6.84288">
        <ele>541.36</ele>
        <time>2022-05-04T08:17:09Z</time>
      </trkpt>
      <trkpt lat="48.28423" lon="6.84302">
        <ele>542.8</ele>
        <time>2022-05-04T08:17:20Z</time>
      </trkpt>
      <trkpt lat="48.28401" lon="6.84316">
        <ele>545.2</ele>
        <time>2022-05-04T08:17:32Z</time>
      </trkpt>
      <trkpt lat="48.28377" lon="6.84327">
        <ele>548.09</ele>
        <time>2022-05-04T08:17:49Z</time>
      </trkpt>
      <trkpt lat="48.28354" lon="6.84335">
        <ele>552.41</ele>
        <time>2022-05-04T08:18:10Z</time>
      </trkpt>
      <trkpt lat="48.28325" lon="6.84346">
        <ele>557.22</ele>
        <time>2022-05-04T08:18:31Z</time>
      </trkpt>
      <trkpt lat="48.28294" lon="6.84358">
        <ele>561.07</ele>
        <time>2022-05-04T08:18:53Z</time>
      </trkpt>
      <trkpt lat="48.28271" lon="6.84372">
        <ele>563.95</ele>
        <time>2022-05-04T08:19:11Z</time>
      </trkpt>
      <trkpt lat="48.2825" lon="6.84384">
        <ele>566.83</ele>
        <time>2022-05-04T08:19:27Z</time>
      </trkpt>
      <trkpt lat="48.28232" lon="6.84404">
        <ele>569.72</ele>
        <time>2022-05-04T08:19:44Z</time>
      </trkpt>
      <trkpt lat="48.28236" lon="6.8443">
        <ele>572.6</ele>
        <time>2022-05-04T08:20:01Z</time>
      </trkpt>
      <trkpt lat="48.28257" lon="6.84437">
        <ele>576.45</ele>
        <time>2022-05-04T08:20:20Z</time>
      </trkpt>
      <trkpt lat="48.2828" lon="6.84439">
        <ele>579.81</ele>
        <time>2022-05-04T08:20:39Z</time>
      </trkpt>
      <trkpt lat="48.28302" lon="6.84454">
        <ele>582.7</ele>
        <time>2022-05-04T08:20:58Z</time>
      </trkpt>
      <trkpt lat="48.28323" lon="6.8447">
        <ele>585.58</ele>
        <time>2022-05-04T08:21:15Z</time>
      </trkpt>
      <trkpt lat="48.28343" lon="6.84488">
        <ele>587.02</ele>
        <time>2022-05-04T08:21:31Z</time>
      </trkpt>
      <trkpt lat="48.28363" lon="6.84511">
        <ele>589.43</ele>
        <time>2022-05-04T08:21:47Z</time>
      </trkpt>
      <trkpt lat="48.28382" lon="6.84533">
        <ele>589.91</ele>
        <time>2022-05-04T08:22:00Z</time>
      </trkpt>
      <trkpt lat="48.28399" lon="6.84556">
        <ele>590.87</ele>
        <time>2022-05-04T08:22:11Z</time>
      </trkpt>
      <trkpt lat="48.28413" lon="6.84578">
        <ele>591.35</ele>
        <time>2022-05-04T08:22:21Z</time>
      </trkpt>
      <trkpt lat="48.28428" lon="6.84599">
        <ele>592.79</ele>
        <time>2022-05-04T08:22:30Z</time>
      </trkpt>
      <trkpt lat="48.28435" lon="6.84624">
        <ele>593.27</ele>
        <time>2022-05-04T08:22:40Z</time>
      </trkpt>
      <trkpt lat="48.28455" lon="6.84646">
        <ele>593.75</ele>
        <time>2022-05-04T08:22:49Z</time>
      </trkpt>
      <trkpt lat="48.28469" lon="6.84672">
        <ele>595.67</ele>
        <time>2022-05-04T08:22:59Z</time>
      </trkpt>
      <trkpt lat="48.28484" lon="6.84697">
        <ele>596.64</ele>
        <time>2022-05-04T08:23:10Z</time>
      </trkpt>
      <trkpt lat="48.28497" lon="6.84721">
        <ele>597.12</ele>
        <time>2022-05-04T08:23:19Z</time>
      </trkpt>
      <trkpt lat="48.28511" lon="6.84745">
        <ele>598.08</ele>
        <time>2022-05-04T08:23:28Z</time>
      </trkpt>
      <trkpt lat="48.28525" lon="6.8477">
        <ele>599.04</ele>
        <time>2022-05-04T08:23:37Z</time>
      </trkpt>
      <trkpt lat="48.28542" lon="6.84793">
        <ele>599.52</ele>
        <time>2022-05-04T08:23:46Z</time>
      </trkpt>
      <trkpt lat="48.28562" lon="6.84812">
        <ele>600.48</ele>
        <time>2022-05-04T08:23:55Z</time>
      </trkpt>
      <trkpt lat="48.28583" lon="6.84821">
        <ele>601.44</ele>
        <time>2022-05-04T08:24:19Z</time>
      </trkpt>
      <trkpt lat="48.28607" lon="6.84819">
        <ele>600.96</ele>
        <time>2022-05-04T08:24:32Z</time>
      </trkpt>
      <trkpt lat="48.28627" lon="6.84807">
        <ele>600.48</ele>
        <time>2022-05-04T08:24:38Z</time>
      </trkpt>
      <trkpt lat="48.28648" lon="6.84794">
        <ele>600</ele>
        <time>2022-05-04T08:24:45Z</time>
      </trkpt>
      <trkpt lat="48.28678" lon="6.84781">
        <ele>600.48</ele>
        <time>2022-05-04T08:24:51Z</time>
      </trkpt>
      <trkpt lat="48.28706" lon="6.84774">
        <ele>600.48</ele>
        <time>2022-05-04T08:24:56Z</time>
      </trkpt>
      <trkpt lat="48.28733" lon="6.84783">
        <ele>599.04</ele>
        <time>2022-05-04T08:25:02Z</time>
      </trkpt>
      <trkpt lat="48.28753" lon="6.84795">
        <ele>598.56</ele>
        <time>2022-05-04T08:25:06Z</time>
      </trkpt>
      <trkpt lat="48.28777" lon="6.84805">
        <ele>598.08</ele>
        <time>2022-05-04T08:25:10Z</time>
      </trkpt>
      <trkpt lat="48.28798" lon="6.84816">
        <ele>597.12</ele>
        <time>2022-05-04T08:25:14Z</time>
      </trkpt>
      <trkpt lat="48.28816" lon="6.84831">
        <ele>598.08</ele>
        <time>2022-05-04T08:25:18Z</time>
      </trkpt>
      <trkpt lat="48.28836" lon="6.84854">
        <ele>599.04</ele>
        <time>2022-05-04T08:25:24Z</time>
      </trkpt>
      <trkpt lat="48.28849" lon="6.84881">
        <ele>600</ele>
        <time>2022-05-04T08:25:30Z</time>
      </trkpt>
      <trkpt lat="48.2886" lon="6.8491">
        <ele>600.96</ele>
        <time>2022-05-04T08:25:36Z</time>
      </trkpt>
      <trkpt lat="48.28869" lon="6.84941">
        <ele>602.4</ele>
        <time>2022-05-04T08:25:44Z</time>
      </trkpt>
      <trkpt lat="48.28872" lon="6.84976">
        <ele>601.92</ele>
        <time>2022-05-04T08:25:50Z</time>
      </trkpt>
      <trkpt lat="48.28875" lon="6.8501">
        <ele>600.48</ele>
        <time>2022-05-04T08:25:55Z</time>
      </trkpt>
      <trkpt lat="48.28881" lon="6.85044">
        <ele>599.04</ele>
        <time>2022-05-04T08:25:59Z</time>
      </trkpt>
      <trkpt lat="48.28888" lon="6.85071">
        <ele>598.56</ele>
        <time>2022-05-04T08:26:02Z</time>
      </trkpt>
      <trkpt lat="48.28902" lon="6.85101">
        <ele>599.04</ele>
        <time>2022-05-04T08:26:06Z</time>
      </trkpt>
      <trkpt lat="48.28918" lon="6.85125">
        <ele>599.52</ele>
        <time>2022-05-04T08:26:10Z</time>
      </trkpt>
      <trkpt lat="48.28931" lon="6.85147">
        <ele>599.52</ele>
        <time>2022-05-04T08:26:14Z</time>
      </trkpt>
      <trkpt lat="48.28946" lon="6.85173">
        <ele>600</ele>
        <time>2022-05-04T08:26:19Z</time>
      </trkpt>
      <trkpt lat="48.28958" lon="6.85199">
        <ele>598.56</ele>
        <time>2022-05-04T08:26:24Z</time>
      </trkpt>
      <trkpt lat="48.28976" lon="6.85218">
        <ele>598.08</ele>
        <time>2022-05-04T08:26:28Z</time>
      </trkpt>
      <trkpt lat="48.28997" lon="6.85229">
        <ele>597.12</ele>
        <time>2022-05-04T08:26:32Z</time>
      </trkpt>
      <trkpt lat="48.29021" lon="6.8524">
        <ele>596.64</ele>
        <time>2022-05-04T08:26:36Z</time>
      </trkpt>
      <trkpt lat="48.29041" lon="6.85255">
        <ele>597.6</ele>
        <time>2022-05-04T08:26:40Z</time>
      </trkpt>
      <trkpt lat="48.29059" lon="6.85275">
        <ele>598.08</ele>
        <time>2022-05-04T08:26:44Z</time>
      </trkpt>
      <trkpt lat="48.29075" lon="6.85296">
        <ele>599.04</ele>
        <time>2022-05-04T08:26:49Z</time>
      </trkpt>
      <trkpt lat="48.29093" lon="6.85321">
        <ele>600.48</ele>
        <time>2022-05-04T08:26:55Z</time>
      </trkpt>
      <trkpt lat="48.29108" lon="6.85346">
        <ele>601.44</ele>
        <time>2022-05-04T08:27:01Z</time>
      </trkpt>
      <trkpt lat="48.29122" lon="6.85373">
        <ele>603.36</ele>
        <time>2022-05-04T08:27:07Z</time>
      </trkpt>
      <trkpt lat="48.29133" lon="6.854">
        <ele>604.33</ele>
        <time>2022-05-04T08:27:13Z</time>
      </trkpt>
      <trkpt lat="48.29139" lon="6.85432">
        <ele>604.81</ele>
        <time>2022-05-04T08:27:20Z</time>
      </trkpt>
      <trkpt lat="48.29145" lon="6.85461">
        <ele>604.81</ele>
        <time>2022-05-04T08:27:26Z</time>
      </trkpt>
      <trkpt lat="48.29151" lon="6.85493">
        <ele>604.81</ele>
        <time>2022-05-04T08:27:32Z</time>
      </trkpt>
      <trkpt lat="48.29157" lon="6.85521">
        <ele>604.81</ele>
        <time>2022-05-04T08:27:38Z</time>
      </trkpt>
      <trkpt lat="48.29163" lon="6.85552">
        <ele>604.81</ele>
        <time>2022-05-04T08:28:03Z</time>
      </trkpt>
      <trkpt lat="48.29165" lon="6.85586">
        <ele>603.85</ele>
        <time>2022-05-04T08:28:12Z</time>
      </trkpt>
      <trkpt lat="48.29166" lon="6.8562">
        <ele>602.4</ele>
        <time>2022-05-04T08:28:17Z</time>
      </trkpt>
      <trkpt lat="48.2917" lon="6.85648">
        <ele>600.96</ele>
        <time>2022-05-04T08:28:21Z</time>
      </trkpt>
      <trkpt lat="48.29173" lon="6.8568">
        <ele>599.04</ele>
        <time>2022-05-04T08:28:26Z</time>
      </trkpt>
      <trkpt lat="48.29178" lon="6.85708">
        <ele>598.56</ele>
        <time>2022-05-04T08:28:33Z</time>
      </trkpt>
      <trkpt lat="48.29176" lon="6.85704">
        <ele>599.04</ele>
        <time>2022-05-04T08:28:49Z</time>
      </trkpt>
      <trkpt lat="48.29175" lon="6.85691">
        <ele>600.48</ele>
        <time>2022-05-04T08:33:01Z</time>
      </trkpt>
      <trkpt lat="48.29174" lon="6.85657">
        <ele>601.92</ele>
        <time>2022-05-04T08:33:10Z</time>
      </trkpt>
      <trkpt lat="48.29173" lon="6.8562">
        <ele>603.85</ele>
        <time>2022-05-04T08:33:19Z</time>
      </trkpt>
      <trkpt lat="48.29173" lon="6.85587">
        <ele>605.29</ele>
        <time>2022-05-04T08:33:28Z</time>
      </trkpt>
      <trkpt lat="48.29177" lon="6.85556">
        <ele>606.25</ele>
        <time>2022-05-04T08:33:36Z</time>
      </trkpt>
      <trkpt lat="48.29174" lon="6.85521">
        <ele>607.69</ele>
        <time>2022-05-04T08:33:44Z</time>
      </trkpt>
      <trkpt lat="48.29173" lon="6.85488">
        <ele>608.65</ele>
        <time>2022-05-04T08:33:52Z</time>
      </trkpt>
      <trkpt lat="48.29172" lon="6.85455">
        <ele>609.61</ele>
        <time>2022-05-04T08:34:00Z</time>
      </trkpt>
      <trkpt lat="48.29177" lon="6.85428">
        <ele>611.06</ele>
        <time>2022-05-04T08:34:08Z</time>
      </trkpt>
      <trkpt lat="48.29181" lon="6.854">
        <ele>612.02</ele>
        <time>2022-05-04T08:34:16Z</time>
      </trkpt>
      <trkpt lat="48.29198" lon="6.85376">
        <ele>613.94</ele>
        <time>2022-05-04T08:34:28Z</time>
      </trkpt>
      <trkpt lat="48.2921" lon="6.8534">
        <ele>613.46</ele>
        <time>2022-05-04T08:35:35Z</time>
      </trkpt>
      <trkpt lat="48.29212" lon="6.85307">
        <ele>611.54</ele>
        <time>2022-05-04T08:35:43Z</time>
      </trkpt>
      <trkpt lat="48.29213" lon="6.85271">
        <ele>608.65</ele>
        <time>2022-05-04T08:35:48Z</time>
      </trkpt>
      <trkpt lat="48.29218" lon="6.85244">
        <ele>607.21</ele>
        <time>2022-05-04T08:35:51Z</time>
      </trkpt>
      <trkpt lat="48.29224" lon="6.85218">
        <ele>606.25</ele>
        <time>2022-05-04T08:35:54Z</time>
      </trkpt>
      <trkpt lat="48.29226" lon="6.85185">
        <ele>605.29</ele>
        <time>2022-05-04T08:35:58Z</time>
      </trkpt>
      <trkpt lat="48.29231" lon="6.85155">
        <ele>605.77</ele>
        <time>2022-05-04T08:36:03Z</time>
      </trkpt>
      <trkpt lat="48.29234" lon="6.85112">
        <ele>605.29</ele>
        <time>2022-05-04T08:36:12Z</time>
      </trkpt>
      <trkpt lat="48.29234" lon="6.85063">
        <ele>604.81</ele>
        <time>2022-05-04T08:36:20Z</time>
      </trkpt>
      <trkpt lat="48.29232" lon="6.85024">
        <ele>604.33</ele>
        <time>2022-05-04T08:36:26Z</time>
      </trkpt>
      <trkpt lat="48.29228" lon="6.84989">
        <ele>602.88</ele>
        <time>2022-05-04T08:36:31Z</time>
      </trkpt>
      <trkpt lat="48.29222" lon="6.84959">
        <ele>602.88</ele>
        <time>2022-05-04T08:36:35Z</time>
      </trkpt>
      <trkpt lat="48.29214" lon="6.8493">
        <ele>601.44</ele>
        <time>2022-05-04T08:36:39Z</time>
      </trkpt>
      <trkpt lat="48.292" lon="6.84902">
        <ele>600.96</ele>
        <time>2022-05-04T08:36:43Z</time>
      </trkpt>
      <trkpt lat="48.2919" lon="6.84876">
        <ele>600.48</ele>
        <time>2022-05-04T08:36:47Z</time>
      </trkpt>
      <trkpt lat="48.29173" lon="6.84857">
        <ele>601.44</ele>
        <time>2022-05-04T08:36:52Z</time>
      </trkpt>
      <trkpt lat="48.29156" lon="6.84829">
        <ele>600.48</ele>
        <time>2022-05-04T08:36:59Z</time>
      </trkpt>
      <trkpt lat="48.29138" lon="6.84803">
        <ele>600.48</ele>
        <time>2022-05-04T08:37:05Z</time>
      </trkpt>
      <trkpt lat="48.29124" lon="6.84775">
        <ele>599.04</ele>
        <time>2022-05-04T08:37:10Z</time>
      </trkpt>
      <trkpt lat="48.2911" lon="6.84744">
        <ele>595.19</ele>
        <time>2022-05-04T08:37:14Z</time>
      </trkpt>
      <trkpt lat="48.29099" lon="6.84712">
        <ele>593.75</ele>
        <time>2022-05-04T08:37:17Z</time>
      </trkpt>
      <trkpt lat="48.2909" lon="6.8468">
        <ele>593.27</ele>
        <time>2022-05-04T08:37:20Z</time>
      </trkpt>
      <trkpt lat="48.29078" lon="6.84644">
        <ele>597.6</ele>
        <time>2022-05-04T08:37:24Z</time>
      </trkpt>
      <trkpt lat="48.2907" lon="6.8461">
        <ele>591.35</ele>
        <time>2022-05-04T08:37:27Z</time>
      </trkpt>
      <trkpt lat="48.29065" lon="6.84577">
        <ele>590.87</ele>
        <time>2022-05-04T08:37:30Z</time>
      </trkpt>
      <trkpt lat="48.29063" lon="6.84541">
        <ele>591.35</ele>
        <time>2022-05-04T08:37:34Z</time>
      </trkpt>
      <trkpt lat="48.29063" lon="6.84507">
        <ele>590.87</ele>
        <time>2022-05-04T08:37:41Z</time>
      </trkpt>
      <trkpt lat="48.2908" lon="6.84481">
        <ele>590.39</ele>
        <time>2022-05-04T08:37:47Z</time>
      </trkpt>
      <trkpt lat="48.29099" lon="6.84464">
        <ele>590.87</ele>
        <time>2022-05-04T08:37:53Z</time>
      </trkpt>
      <trkpt lat="48.29124" lon="6.84458">
        <ele>592.79</ele>
        <time>2022-05-04T08:38:01Z</time>
      </trkpt>
      <trkpt lat="48.2916" lon="6.84462">
        <ele>593.75</ele>
        <time>2022-05-04T08:38:14Z</time>
      </trkpt>
      <trkpt lat="48.29196" lon="6.84458">
        <ele>596.64</ele>
        <time>2022-05-04T08:38:27Z</time>
      </trkpt>
      <trkpt lat="48.29232" lon="6.84449">
        <ele>598.56</ele>
        <time>2022-05-04T08:38:39Z</time>
      </trkpt>
      <trkpt lat="48.29275" lon="6.84441">
        <ele>599.52</ele>
        <time>2022-05-04T08:38:52Z</time>
      </trkpt>
      <trkpt lat="48.29302" lon="6.84426">
        <ele>599.52</ele>
        <time>2022-05-04T08:39:00Z</time>
      </trkpt>
      <trkpt lat="48.29324" lon="6.84397">
        <ele>600</ele>
        <time>2022-05-04T08:39:09Z</time>
      </trkpt>
      <trkpt lat="48.29326" lon="6.84362">
        <ele>600</ele>
        <time>2022-05-04T08:39:17Z</time>
      </trkpt>
      <trkpt lat="48.2932" lon="6.84332">
        <ele>600.48</ele>
        <time>2022-05-04T08:39:26Z</time>
      </trkpt>
      <trkpt lat="48.29307" lon="6.843">
        <ele>599.52</ele>
        <time>2022-05-04T08:39:34Z</time>
      </trkpt>
      <trkpt lat="48.29297" lon="6.84268">
        <ele>599.04</ele>
        <time>2022-05-04T08:39:39Z</time>
      </trkpt>
      <trkpt lat="48.29283" lon="6.84238">
        <ele>598.56</ele>
        <time>2022-05-04T08:39:45Z</time>
      </trkpt>
      <trkpt lat="48.29272" lon="6.84212">
        <ele>597.6</ele>
        <time>2022-05-04T08:39:49Z</time>
      </trkpt>
      <trkpt lat="48.29261" lon="6.84179">
        <ele>596.64</ele>
        <time>2022-05-04T08:39:54Z</time>
      </trkpt>
      <trkpt lat="48.2925" lon="6.84151">
        <ele>595.67</ele>
        <time>2022-05-04T08:39:58Z</time>
      </trkpt>
      <trkpt lat="48.2924" lon="6.84117">
        <ele>595.19</ele>
        <time>2022-05-04T08:40:02Z</time>
      </trkpt>
      <trkpt lat="48.29238" lon="6.84086">
        <ele>594.71</ele>
        <time>2022-05-04T08:40:06Z</time>
      </trkpt>
      <trkpt lat="48.29241" lon="6.84054">
        <ele>594.71</ele>
        <time>2022-05-04T08:40:10Z</time>
      </trkpt>
      <trkpt lat="48.29246" lon="6.84014">
        <ele>595.19</ele>
        <time>2022-05-04T08:40:15Z</time>
      </trkpt>
      <trkpt lat="48.29254" lon="6.83979">
        <ele>595.19</ele>
        <time>2022-05-04T08:40:20Z</time>
      </trkpt>
      <trkpt lat="48.29267" lon="6.83943">
        <ele>594.71</ele>
        <time>2022-05-04T08:40:25Z</time>
      </trkpt>
      <trkpt lat="48.29279" lon="6.83913">
        <ele>594.23</ele>
        <time>2022-05-04T08:40:29Z</time>
      </trkpt>
      <trkpt lat="48.29282" lon="6.83881">
        <ele>593.27</ele>
        <time>2022-05-04T08:40:33Z</time>
      </trkpt>
      <trkpt lat="48.29274" lon="6.83849">
        <ele>592.31</ele>
        <time>2022-05-04T08:40:37Z</time>
      </trkpt>
      <trkpt lat="48.29266" lon="6.83815">
        <ele>590.87</ele>
        <time>2022-05-04T08:40:41Z</time>
      </trkpt>
      <trkpt lat="48.29265" lon="6.83778">
        <ele>590.39</ele>
        <time>2022-05-04T08:41:57Z</time>
      </trkpt>
      <trkpt lat="48.29285" lon="6.8379">
        <ele>589.91</ele>
        <time>2022-05-04T08:42:07Z</time>
      </trkpt>
      <trkpt lat="48.29306" lon="6.83799">
        <ele>588.46</ele>
        <time>2022-05-04T08:42:13Z</time>
      </trkpt>
      <trkpt lat="48.29328" lon="6.83805">
        <ele>586.06</ele>
        <time>2022-05-04T08:42:18Z</time>
      </trkpt>
      <trkpt lat="48.29355" lon="6.83815">
        <ele>583.66</ele>
        <time>2022-05-04T08:42:23Z</time>
      </trkpt>
      <trkpt lat="48.29379" lon="6.83828">
        <ele>582.22</ele>
        <time>2022-05-04T08:42:27Z</time>
      </trkpt>
      <trkpt lat="48.29406" lon="6.8385">
        <ele>580.29</ele>
        <time>2022-05-04T08:42:32Z</time>
      </trkpt>
      <trkpt lat="48.29428" lon="6.8387">
        <ele>577.41</ele>
        <time>2022-05-04T08:42:37Z</time>
      </trkpt>
      <trkpt lat="48.29451" lon="6.83876">
        <ele>574.53</ele>
        <time>2022-05-04T08:42:41Z</time>
      </trkpt>
      <trkpt lat="48.29474" lon="6.83878">
        <ele>570.68</ele>
        <time>2022-05-04T08:42:45Z</time>
      </trkpt>
      <trkpt lat="48.295" lon="6.83873">
        <ele>566.35</ele>
        <time>2022-05-04T08:42:49Z</time>
      </trkpt>
      <trkpt lat="48.29519" lon="6.83869">
        <ele>562.99</ele>
        <time>2022-05-04T08:42:52Z</time>
      </trkpt>
      <trkpt lat="48.29541" lon="6.83868">
        <ele>559.62</ele>
        <time>2022-05-04T08:42:56Z</time>
      </trkpt>
      <trkpt lat="48.29559" lon="6.83855">
        <ele>556.26</ele>
        <time>2022-05-04T08:43:00Z</time>
      </trkpt>
      <trkpt lat="48.29572" lon="6.8383">
        <ele>554.34</ele>
        <time>2022-05-04T08:43:05Z</time>
      </trkpt>
      <trkpt lat="48.2958" lon="6.83802">
        <ele>553.38</ele>
        <time>2022-05-04T08:43:25Z</time>
      </trkpt>
      <trkpt lat="48.29564" lon="6.83785">
        <ele>552.9</ele>
        <time>2022-05-04T08:43:32Z</time>
      </trkpt>
      <trkpt lat="48.29546" lon="6.83765">
        <ele>550.49</ele>
        <time>2022-05-04T08:43:39Z</time>
      </trkpt>
      <trkpt lat="48.29528" lon="6.83745">
        <ele>550.49</ele>
        <time>2022-05-04T08:43:44Z</time>
      </trkpt>
      <trkpt lat="48.29512" lon="6.83726">
        <ele>549.05</ele>
        <time>2022-05-04T08:43:48Z</time>
      </trkpt>
      <trkpt lat="48.29496" lon="6.83708">
        <ele>547.13</ele>
        <time>2022-05-04T08:43:52Z</time>
      </trkpt>
      <trkpt lat="48.29477" lon="6.83692">
        <ele>545.69</ele>
        <time>2022-05-04T08:43:56Z</time>
      </trkpt>
      <trkpt lat="48.29456" lon="6.83681">
        <ele>542.8</ele>
        <time>2022-05-04T08:44:00Z</time>
      </trkpt>
      <trkpt lat="48.29438" lon="6.83671">
        <ele>540.88</ele>
        <time>2022-05-04T08:44:03Z</time>
      </trkpt>
      <trkpt lat="48.29416" lon="6.83661">
        <ele>538.96</ele>
        <time>2022-05-04T08:44:07Z</time>
      </trkpt>
      <trkpt lat="48.29396" lon="6.83655">
        <ele>536.55</ele>
        <time>2022-05-04T08:44:11Z</time>
      </trkpt>
      <trkpt lat="48.29383" lon="6.83635">
        <ele>535.11</ele>
        <time>2022-05-04T08:44:16Z</time>
      </trkpt>
      <trkpt lat="48.29389" lon="6.83598">
        <ele>531.75</ele>
        <time>2022-05-04T08:44:38Z</time>
      </trkpt>
      <trkpt lat="48.29399" lon="6.83566">
        <ele>528.86</ele>
        <time>2022-05-04T08:44:43Z</time>
      </trkpt>
      <trkpt lat="48.29409" lon="6.83529">
        <ele>526.94</ele>
        <time>2022-05-04T08:44:47Z</time>
      </trkpt>
      <trkpt lat="48.29415" lon="6.835">
        <ele>525.02</ele>
        <time>2022-05-04T08:44:50Z</time>
      </trkpt>
      <trkpt lat="48.29422" lon="6.83472">
        <ele>522.13</ele>
        <time>2022-05-04T08:44:55Z</time>
      </trkpt>
      <trkpt lat="48.29437" lon="6.83451">
        <ele>519.25</ele>
        <time>2022-05-04T08:45:01Z</time>
      </trkpt>
      <trkpt lat="48.29451" lon="6.83417">
        <ele>519.25</ele>
        <time>2022-05-04T08:45:07Z</time>
      </trkpt>
      <trkpt lat="48.29472" lon="6.83368">
        <ele>519.73</ele>
        <time>2022-05-04T08:45:11Z</time>
      </trkpt>
      <trkpt lat="48.29485" lon="6.83335">
        <ele>520.69</ele>
        <time>2022-05-04T08:45:16Z</time>
      </trkpt>
      <trkpt lat="48.29494" lon="6.83302">
        <ele>520.69</ele>
        <time>2022-05-04T08:45:21Z</time>
      </trkpt>
      <trkpt lat="48.29505" lon="6.83269">
        <ele>520.69</ele>
        <time>2022-05-04T08:45:26Z</time>
      </trkpt>
      <trkpt lat="48.2952" lon="6.83237">
        <ele>521.65</ele>
        <time>2022-05-04T08:45:34Z</time>
      </trkpt>
      <trkpt lat="48.29536" lon="6.83201">
        <ele>522.13</ele>
        <time>2022-05-04T08:45:40Z</time>
      </trkpt>
      <trkpt lat="48.2955" lon="6.83168">
        <ele>522.61</ele>
        <time>2022-05-04T08:45:46Z</time>
      </trkpt>
      <trkpt lat="48.2957" lon="6.83145">
        <ele>524.06</ele>
        <time>2022-05-04T08:45:54Z</time>
      </trkpt>
      <trkpt lat="48.29601" lon="6.83132">
        <ele>522.61</ele>
        <time>2022-05-04T08:46:00Z</time>
      </trkpt>
      <trkpt lat="48.29626" lon="6.83114">
        <ele>523.58</ele>
        <time>2022-05-04T08:46:07Z</time>
      </trkpt>
      <trkpt lat="48.29654" lon="6.83098">
        <ele>525.02</ele>
        <time>2022-05-04T08:46:14Z</time>
      </trkpt>
      <trkpt lat="48.29677" lon="6.83091">
        <ele>525.5</ele>
        <time>2022-05-04T08:46:21Z</time>
      </trkpt>
      <trkpt lat="48.29705" lon="6.83091">
        <ele>525.98</ele>
        <time>2022-05-04T08:46:29Z</time>
      </trkpt>
      <trkpt lat="48.29729" lon="6.83095">
        <ele>525.5</ele>
        <time>2022-05-04T08:46:35Z</time>
      </trkpt>
      <trkpt lat="48.29752" lon="6.83101">
        <ele>526.46</ele>
        <time>2022-05-04T08:46:42Z</time>
      </trkpt>
      <trkpt lat="48.29781" lon="6.83092">
        <ele>528.86</ele>
        <time>2022-05-04T08:46:58Z</time>
      </trkpt>
      <trkpt lat="48.29821" lon="6.83071">
        <ele>530.79</ele>
        <time>2022-05-04T08:47:11Z</time>
      </trkpt>
      <trkpt lat="48.29841" lon="6.83045">
        <ele>529.34</ele>
        <time>2022-05-04T08:47:31Z</time>
      </trkpt>
      <trkpt lat="48.29845" lon="6.83015">
        <ele>526.94</ele>
        <time>2022-05-04T08:47:38Z</time>
      </trkpt>
      <trkpt lat="48.29832" lon="6.82995">
        <ele>526.46</ele>
        <time>2022-05-04T08:48:47Z</time>
      </trkpt>
      <trkpt lat="48.29814" lon="6.82974">
        <ele>525.98</ele>
        <time>2022-05-04T08:48:53Z</time>
      </trkpt>
      <trkpt lat="48.29799" lon="6.82954">
        <ele>526.46</ele>
        <time>2022-05-04T08:48:58Z</time>
      </trkpt>
      <trkpt lat="48.29782" lon="6.82932">
        <ele>526.46</ele>
        <time>2022-05-04T08:49:04Z</time>
      </trkpt>
      <trkpt lat="48.29765" lon="6.82912">
        <ele>526.94</ele>
        <time>2022-05-04T08:49:10Z</time>
      </trkpt>
      <trkpt lat="48.29748" lon="6.8289">
        <ele>526.94</ele>
        <time>2022-05-04T08:49:16Z</time>
      </trkpt>
      <trkpt lat="48.29732" lon="6.8287">
        <ele>527.42</ele>
        <time>2022-05-04T08:49:22Z</time>
      </trkpt>
      <trkpt lat="48.29714" lon="6.82849">
        <ele>528.38</ele>
        <time>2022-05-04T08:49:29Z</time>
      </trkpt>
      <trkpt lat="48.29716" lon="6.82811">
        <ele>529.82</ele>
        <time>2022-05-04T08:49:37Z</time>
      </trkpt>
      <trkpt lat="48.29725" lon="6.82772">
        <ele>530.3</ele>
        <time>2022-05-04T08:49:43Z</time>
      </trkpt>
      <trkpt lat="48.29724" lon="6.82733">
        <ele>530.3</ele>
        <time>2022-05-04T08:49:48Z</time>
      </trkpt>
      <trkpt lat="48.29725" lon="6.82692">
        <ele>530.3</ele>
        <time>2022-05-04T08:49:54Z</time>
      </trkpt>
      <trkpt lat="48.29737" lon="6.82665">
        <ele>531.27</ele>
        <time>2022-05-04T08:50:00Z</time>
      </trkpt>
      <trkpt lat="48.29752" lon="6.82639">
        <ele>532.23</ele>
        <time>2022-05-04T08:50:06Z</time>
      </trkpt>
      <trkpt lat="48.29756" lon="6.82602">
        <ele>533.19</ele>
        <time>2022-05-04T08:50:30Z</time>
      </trkpt>
      <trkpt lat="48.29759" lon="6.82567">
        <ele>532.23</ele>
        <time>2022-05-04T08:50:37Z</time>
      </trkpt>
      <trkpt lat="48.29759" lon="6.82534">
        <ele>530.79</ele>
        <time>2022-05-04T08:50:41Z</time>
      </trkpt>
      <trkpt lat="48.2976" lon="6.82505">
        <ele>528.86</ele>
        <time>2022-05-04T08:50:44Z</time>
      </trkpt>
      <trkpt lat="48.29762" lon="6.82472">
        <ele>526.94</ele>
        <time>2022-05-04T08:50:47Z</time>
      </trkpt>
      <trkpt lat="48.29769" lon="6.82438">
        <ele>525.5</ele>
        <time>2022-05-04T08:50:50Z</time>
      </trkpt>
      <trkpt lat="48.29778" lon="6.82407">
        <ele>524.06</ele>
        <time>2022-05-04T08:50:53Z</time>
      </trkpt>
      <trkpt lat="48.29788" lon="6.82375">
        <ele>521.65</ele>
        <time>2022-05-04T08:50:56Z</time>
      </trkpt>
      <trkpt lat="48.29801" lon="6.82346">
        <ele>519.73</ele>
        <time>2022-05-04T08:50:59Z</time>
      </trkpt>
      <trkpt lat="48.29817" lon="6.82319">
        <ele>517.33</ele>
        <time>2022-05-04T08:51:02Z</time>
      </trkpt>
      <trkpt lat="48.29833" lon="6.82296">
        <ele>515.4</ele>
        <time>2022-05-04T08:51:05Z</time>
      </trkpt>
      <trkpt lat="48.2985" lon="6.82282">
        <ele>513.96</ele>
        <time>2022-05-04T08:51:08Z</time>
      </trkpt>
      <trkpt lat="48.29869" lon="6.82274">
        <ele>511.56</ele>
        <time>2022-05-04T08:51:12Z</time>
      </trkpt>
      <trkpt lat="48.29889" lon="6.8226">
        <ele>511.08</ele>
        <time>2022-05-04T08:51:16Z</time>
      </trkpt>
      <trkpt lat="48.29918" lon="6.82253">
        <ele>513</ele>
        <time>2022-05-04T08:51:23Z</time>
      </trkpt>
      <trkpt lat="48.29942" lon="6.82245">
        <ele>514.92</ele>
        <time>2022-05-04T08:51:32Z</time>
      </trkpt>
      <trkpt lat="48.29968" lon="6.82231">
        <ele>516.85</ele>
        <time>2022-05-04T08:51:44Z</time>
      </trkpt>
      <trkpt lat="48.2999" lon="6.82212">
        <ele>515.88</ele>
        <time>2022-05-04T08:51:52Z</time>
      </trkpt>
      <trkpt lat="48.30009" lon="6.82191">
        <ele>513.48</ele>
        <time>2022-05-04T08:51:57Z</time>
      </trkpt>
      <trkpt lat="48.30024" lon="6.82167">
        <ele>513</ele>
        <time>2022-05-04T08:52:01Z</time>
      </trkpt>
      <trkpt lat="48.30036" lon="6.82145">
        <ele>512.52</ele>
        <time>2022-05-04T08:52:05Z</time>
      </trkpt>
      <trkpt lat="48.3005" lon="6.82114">
        <ele>511.08</ele>
        <time>2022-05-04T08:52:10Z</time>
      </trkpt>
      <trkpt lat="48.30063" lon="6.82087">
        <ele>510.12</ele>
        <time>2022-05-04T08:52:14Z</time>
      </trkpt>
      <trkpt lat="48.30072" lon="6.82054">
        <ele>509.16</ele>
        <time>2022-05-04T08:52:19Z</time>
      </trkpt>
      <trkpt lat="48.30077" lon="6.82023">
        <ele>508.67</ele>
        <time>2022-05-04T08:52:23Z</time>
      </trkpt>
      <trkpt lat="48.30075" lon="6.81994">
        <ele>508.19</ele>
        <time>2022-05-04T08:52:27Z</time>
      </trkpt>
      <trkpt lat="48.30065" lon="6.8196">
        <ele>509.16</ele>
        <time>2022-05-04T08:52:56Z</time>
      </trkpt>
      <trkpt lat="48.30049" lon="6.81943">
        <ele>509.64</ele>
        <time>2022-05-04T08:53:04Z</time>
      </trkpt>
      <trkpt lat="48.3003" lon="6.81926">
        <ele>509.64</ele>
        <time>2022-05-04T08:53:11Z</time>
      </trkpt>
      <trkpt lat="48.30012" lon="6.8191">
        <ele>509.64</ele>
        <time>2022-05-04T08:53:16Z</time>
      </trkpt>
      <trkpt lat="48.29994" lon="6.81893">
        <ele>509.64</ele>
        <time>2022-05-04T08:53:21Z</time>
      </trkpt>
      <trkpt lat="48.29976" lon="6.81872">
        <ele>510.6</ele>
        <time>2022-05-04T08:53:26Z</time>
      </trkpt>
      <trkpt lat="48.29959" lon="6.81846">
        <ele>511.56</ele>
        <time>2022-05-04T08:53:31Z</time>
      </trkpt>
      <trkpt lat="48.29942" lon="6.81821">
        <ele>512.04</ele>
        <time>2022-05-04T08:53:36Z</time>
      </trkpt>
      <trkpt lat="48.29924" lon="6.81798">
        <ele>513</ele>
        <time>2022-05-04T08:53:42Z</time>
      </trkpt>
      <trkpt lat="48.29907" lon="6.81779">
        <ele>513</ele>
        <time>2022-05-04T08:53:48Z</time>
      </trkpt>
      <trkpt lat="48.29889" lon="6.8177">
        <ele>513</ele>
        <time>2022-05-04T08:53:53Z</time>
      </trkpt>
      <trkpt lat="48.29868" lon="6.81774">
        <ele>512.52</ele>
        <time>2022-05-04T08:53:58Z</time>
      </trkpt>
      <trkpt lat="48.2985" lon="6.81787">
        <ele>513.48</ele>
        <time>2022-05-04T08:54:03Z</time>
      </trkpt>
      <trkpt lat="48.29831" lon="6.81802">
        <ele>513.96</ele>
        <time>2022-05-04T08:54:09Z</time>
      </trkpt>
      <trkpt lat="48.29817" lon="6.8182">
        <ele>514.92</ele>
        <time>2022-05-04T08:54:15Z</time>
      </trkpt>
      <trkpt lat="48.29802" lon="6.81837">
        <ele>515.88</ele>
        <time>2022-05-04T08:54:22Z</time>
      </trkpt>
      <trkpt lat="48.29785" lon="6.81854">
        <ele>515.88</ele>
        <time>2022-05-04T08:54:29Z</time>
      </trkpt>
      <trkpt lat="48.29767" lon="6.81869">
        <ele>516.85</ele>
        <time>2022-05-04T08:54:36Z</time>
      </trkpt>
      <trkpt lat="48.29748" lon="6.81885">
        <ele>517.81</ele>
        <time>2022-05-04T08:54:44Z</time>
      </trkpt>
      <trkpt lat="48.29723" lon="6.81895">
        <ele>517.81</ele>
        <time>2022-05-04T08:54:53Z</time>
      </trkpt>
      <trkpt lat="48.29718" lon="6.81871">
        <ele>516.85</ele>
        <time>2022-05-04T08:55:00Z</time>
      </trkpt>
      <trkpt lat="48.29723" lon="6.81844">
        <ele>516.85</ele>
        <time>2022-05-04T08:55:05Z</time>
      </trkpt>
      <trkpt lat="48.29724" lon="6.81816">
        <ele>515.4</ele>
        <time>2022-05-04T08:55:09Z</time>
      </trkpt>
      <trkpt lat="48.29729" lon="6.8179">
        <ele>513.96</ele>
        <time>2022-05-04T08:55:13Z</time>
      </trkpt>
      <trkpt lat="48.29734" lon="6.81759">
        <ele>512.04</ele>
        <time>2022-05-04T08:55:16Z</time>
      </trkpt>
      <trkpt lat="48.29737" lon="6.81731">
        <ele>511.08</ele>
        <time>2022-05-04T08:55:18Z</time>
      </trkpt>
      <trkpt lat="48.2974" lon="6.81695">
        <ele>509.64</ele>
        <time>2022-05-04T08:55:21Z</time>
      </trkpt>
      <trkpt lat="48.29742" lon="6.81659">
        <ele>508.19</ele>
        <time>2022-05-04T08:55:24Z</time>
      </trkpt>
      <trkpt lat="48.29741" lon="6.81625">
        <ele>507.23</ele>
        <time>2022-05-04T08:55:27Z</time>
      </trkpt>
      <trkpt lat="48.2974" lon="6.81593">
        <ele>504.83</ele>
        <time>2022-05-04T08:55:30Z</time>
      </trkpt>
      <trkpt lat="48.29738" lon="6.81563">
        <ele>504.35</ele>
        <time>2022-05-04T08:55:33Z</time>
      </trkpt>
      <trkpt lat="48.29737" lon="6.81535">
        <ele>503.87</ele>
        <time>2022-05-04T08:55:36Z</time>
      </trkpt>
      <trkpt lat="48.29732" lon="6.81502">
        <ele>502.91</ele>
        <time>2022-05-04T08:55:40Z</time>
      </trkpt>
      <trkpt lat="48.29716" lon="6.81485">
        <ele>501.46</ele>
        <time>2022-05-04T08:55:50Z</time>
      </trkpt>
      <trkpt lat="48.29695" lon="6.81474">
        <ele>498.1</ele>
        <time>2022-05-04T08:56:00Z</time>
      </trkpt>
      <trkpt lat="48.29679" lon="6.81493">
        <ele>499.06</ele>
        <time>2022-05-04T08:56:43Z</time>
      </trkpt>
      <trkpt lat="48.29662" lon="6.81514">
        <ele>501.95</ele>
        <time>2022-05-04T08:56:56Z</time>
      </trkpt>
      <trkpt lat="48.29643" lon="6.81533">
        <ele>504.83</ele>
        <time>2022-05-04T08:57:08Z</time>
      </trkpt>
      <trkpt lat="48.29623" lon="6.81548">
        <ele>506.75</ele>
        <time>2022-05-04T08:57:19Z</time>
      </trkpt>
      <trkpt lat="48.29619" lon="6.81528">
        <ele>506.75</ele>
        <time>2022-05-04T08:57:28Z</time>
      </trkpt>
      <trkpt lat="48.29606" lon="6.81503">
        <ele>506.27</ele>
        <time>2022-05-04T08:57:35Z</time>
      </trkpt>
      <trkpt lat="48.29592" lon="6.81473">
        <ele>506.27</ele>
        <time>2022-05-04T08:57:41Z</time>
      </trkpt>
      <trkpt lat="48.29579" lon="6.81453">
        <ele>507.71</ele>
        <time>2022-05-04T08:57:47Z</time>
      </trkpt>
      <trkpt lat="48.29564" lon="6.81434">
        <ele>508.19</ele>
        <time>2022-05-04T08:57:52Z</time>
      </trkpt>
      <trkpt lat="48.29545" lon="6.81417">
        <ele>508.19</ele>
        <time>2022-05-04T08:57:59Z</time>
      </trkpt>
      <trkpt lat="48.29526" lon="6.81398">
        <ele>508.19</ele>
        <time>2022-05-04T08:58:05Z</time>
      </trkpt>
      <trkpt lat="48.29508" lon="6.81383">
        <ele>509.64</ele>
        <time>2022-05-04T08:58:11Z</time>
      </trkpt>
      <trkpt lat="48.2949" lon="6.81374">
        <ele>511.56</ele>
        <time>2022-05-04T08:58:17Z</time>
      </trkpt>
      <trkpt lat="48.29471" lon="6.81365">
        <ele>512.52</ele>
        <time>2022-05-04T08:58:24Z</time>
      </trkpt>
      <trkpt lat="48.29451" lon="6.81357">
        <ele>514.44</ele>
        <time>2022-05-04T08:58:32Z</time>
      </trkpt>
      <trkpt lat="48.29433" lon="6.8135">
        <ele>515.88</ele>
        <time>2022-05-04T08:58:43Z</time>
      </trkpt>
      <trkpt lat="48.2941" lon="6.81348">
        <ele>517.81</ele>
        <time>2022-05-04T08:58:56Z</time>
      </trkpt>
      <trkpt lat="48.29391" lon="6.81354">
        <ele>519.25</ele>
        <time>2022-05-04T08:59:08Z</time>
      </trkpt>
      <trkpt lat="48.29369" lon="6.81366">
        <ele>521.17</ele>
        <time>2022-05-04T08:59:21Z</time>
      </trkpt>
      <trkpt lat="48.29349" lon="6.81393">
        <ele>522.13</ele>
        <time>2022-05-04T08:59:40Z</time>
      </trkpt>
      <trkpt lat="48.2933" lon="6.81421">
        <ele>525.5</ele>
        <time>2022-05-04T08:59:56Z</time>
      </trkpt>
      <trkpt lat="48.29313" lon="6.81453">
        <ele>526.94</ele>
        <time>2022-05-04T09:00:07Z</time>
      </trkpt>
      <trkpt lat="48.29297" lon="6.81482">
        <ele>528.38</ele>
        <time>2022-05-04T09:00:20Z</time>
      </trkpt>
      <trkpt lat="48.29279" lon="6.81505">
        <ele>530.79</ele>
        <time>2022-05-04T09:00:31Z</time>
      </trkpt>
      <trkpt lat="48.29259" lon="6.81531">
        <ele>532.23</ele>
        <time>2022-05-04T09:00:42Z</time>
      </trkpt>
      <trkpt lat="48.29241" lon="6.81554">
        <ele>534.15</ele>
        <time>2022-05-04T09:00:52Z</time>
      </trkpt>
      <trkpt lat="48.29227" lon="6.81577">
        <ele>535.59</ele>
        <time>2022-05-04T09:01:03Z</time>
      </trkpt>
      <trkpt lat="48.29212" lon="6.816">
        <ele>536.55</ele>
        <time>2022-05-04T09:01:13Z</time>
      </trkpt>
      <trkpt lat="48.292" lon="6.81626">
        <ele>537.99</ele>
        <time>2022-05-04T09:01:23Z</time>
      </trkpt>
      <trkpt lat="48.29191" lon="6.81659">
        <ele>539.92</ele>
        <time>2022-05-04T09:01:33Z</time>
      </trkpt>
      <trkpt lat="48.29184" lon="6.81689">
        <ele>539.92</ele>
        <time>2022-05-04T09:01:43Z</time>
      </trkpt>
      <trkpt lat="48.29187" lon="6.8172">
        <ele>542.8</ele>
        <time>2022-05-04T09:01:54Z</time>
      </trkpt>
      <trkpt lat="48.29194" lon="6.81757">
        <ele>545.2</ele>
        <time>2022-05-04T09:02:09Z</time>
      </trkpt>
      <trkpt lat="48.29206" lon="6.81787">
        <ele>546.17</ele>
        <time>2022-05-04T09:02:21Z</time>
      </trkpt>
      <trkpt lat="48.29219" lon="6.81815">
        <ele>548.09</ele>
        <time>2022-05-04T09:02:34Z</time>
      </trkpt>
      <trkpt lat="48.29232" lon="6.81845">
        <ele>550.01</ele>
        <time>2022-05-04T09:02:47Z</time>
      </trkpt>
      <trkpt lat="48.29244" lon="6.81877">
        <ele>552.41</ele>
        <time>2022-05-04T09:03:01Z</time>
      </trkpt>
      <trkpt lat="48.29256" lon="6.81911">
        <ele>554.34</ele>
        <time>2022-05-04T09:03:13Z</time>
      </trkpt>
      <trkpt lat="48.29271" lon="6.81948">
        <ele>556.26</ele>
        <time>2022-05-04T09:03:26Z</time>
      </trkpt>
      <trkpt lat="48.29282" lon="6.81975">
        <ele>558.18</ele>
        <time>2022-05-04T09:03:36Z</time>
      </trkpt>
      <trkpt lat="48.29289" lon="6.82003">
        <ele>558.66</ele>
        <time>2022-05-04T09:03:46Z</time>
      </trkpt>
      <trkpt lat="48.29291" lon="6.82031">
        <ele>558.66</ele>
        <time>2022-05-04T09:03:55Z</time>
      </trkpt>
      <trkpt lat="48.29289" lon="6.82058">
        <ele>559.62</ele>
        <time>2022-05-04T09:04:05Z</time>
      </trkpt>
      <trkpt lat="48.29278" lon="6.82082">
        <ele>560.59</ele>
        <time>2022-05-04T09:04:14Z</time>
      </trkpt>
      <trkpt lat="48.29264" lon="6.82111">
        <ele>561.55</ele>
        <time>2022-05-04T09:04:24Z</time>
      </trkpt>
      <trkpt lat="48.29259" lon="6.82148">
        <ele>564.91</ele>
        <time>2022-05-04T09:04:37Z</time>
      </trkpt>
      <trkpt lat="48.29259" lon="6.8218">
        <ele>567.32</ele>
        <time>2022-05-04T09:04:48Z</time>
      </trkpt>
      <trkpt lat="48.29255" lon="6.82217">
        <ele>569.72</ele>
        <time>2022-05-04T09:05:02Z</time>
      </trkpt>
      <trkpt lat="48.29245" lon="6.82248">
        <ele>571.64</ele>
        <time>2022-05-04T09:05:17Z</time>
      </trkpt>
      <trkpt lat="48.29239" lon="6.82288">
        <ele>573.56</ele>
        <time>2022-05-04T09:05:35Z</time>
      </trkpt>
      <trkpt lat="48.29216" lon="6.82305">
        <ele>576.93</ele>
        <time>2022-05-04T09:09:37Z</time>
      </trkpt>
      <trkpt lat="48.29194" lon="6.82301">
        <ele>576.45</ele>
        <time>2022-05-04T09:09:46Z</time>
      </trkpt>
      <trkpt lat="48.29174" lon="6.82296">
        <ele>575.97</ele>
        <time>2022-05-04T09:09:53Z</time>
      </trkpt>
      <trkpt lat="48.29155" lon="6.82283">
        <ele>575.97</ele>
        <time>2022-05-04T09:09:59Z</time>
      </trkpt>
      <trkpt lat="48.29137" lon="6.82269">
        <ele>575.01</ele>
        <time>2022-05-04T09:10:04Z</time>
      </trkpt>
      <trkpt lat="48.29119" lon="6.82257">
        <ele>575.01</ele>
        <time>2022-05-04T09:10:09Z</time>
      </trkpt>
      <trkpt lat="48.29098" lon="6.82246">
        <ele>574.04</ele>
        <time>2022-05-04T09:10:14Z</time>
      </trkpt>
      <trkpt lat="48.29078" lon="6.82236">
        <ele>573.56</ele>
        <time>2022-05-04T09:10:18Z</time>
      </trkpt>
      <trkpt lat="48.29056" lon="6.82226">
        <ele>572.6</ele>
        <time>2022-05-04T09:10:23Z</time>
      </trkpt>
      <trkpt lat="48.29036" lon="6.82214">
        <ele>571.64</ele>
        <time>2022-05-04T09:10:27Z</time>
      </trkpt>
      <trkpt lat="48.2902" lon="6.82197">
        <ele>571.64</ele>
        <time>2022-05-04T09:10:31Z</time>
      </trkpt>
      <trkpt lat="48.29004" lon="6.82179">
        <ele>570.68</ele>
        <time>2022-05-04T09:10:35Z</time>
      </trkpt>
      <trkpt lat="48.28988" lon="6.82162">
        <ele>570.68</ele>
        <time>2022-05-04T09:10:39Z</time>
      </trkpt>
      <trkpt lat="48.28971" lon="6.82143">
        <ele>570.68</ele>
        <time>2022-05-04T09:10:43Z</time>
      </trkpt>
      <trkpt lat="48.28953" lon="6.82123">
        <ele>571.16</ele>
        <time>2022-05-04T09:10:48Z</time>
      </trkpt>
      <trkpt lat="48.28936" lon="6.82103">
        <ele>571.16</ele>
        <time>2022-05-04T09:10:53Z</time>
      </trkpt>
      <trkpt lat="48.28922" lon="6.82083">
        <ele>572.6</ele>
        <time>2022-05-04T09:10:59Z</time>
      </trkpt>
      <trkpt lat="48.28909" lon="6.82053">
        <ele>575.97</ele>
        <time>2022-05-04T09:11:09Z</time>
      </trkpt>
      <trkpt lat="48.28895" lon="6.82013">
        <ele>577.41</ele>
        <time>2022-05-04T09:11:20Z</time>
      </trkpt>
      <trkpt lat="48.28881" lon="6.8198">
        <ele>579.33</ele>
        <time>2022-05-04T09:11:30Z</time>
      </trkpt>
      <trkpt lat="48.28863" lon="6.81956">
        <ele>581.25</ele>
        <time>2022-05-04T09:11:40Z</time>
      </trkpt>
      <trkpt lat="48.28853" lon="6.81923">
        <ele>581.73</ele>
        <time>2022-05-04T09:11:48Z</time>
      </trkpt>
      <trkpt lat="48.28843" lon="6.8189">
        <ele>581.73</ele>
        <time>2022-05-04T09:11:56Z</time>
      </trkpt>
      <trkpt lat="48.28831" lon="6.81862">
        <ele>573.56</ele>
        <time>2022-05-04T09:12:21Z</time>
      </trkpt>
      <trkpt lat="48.28828" lon="6.81824">
        <ele>578.37</ele>
        <time>2022-05-04T09:12:45Z</time>
      </trkpt>
      <trkpt lat="48.2882" lon="6.81784">
        <ele>576.93</ele>
        <time>2022-05-04T09:12:51Z</time>
      </trkpt>
      <trkpt lat="48.28816" lon="6.81745">
        <ele>576.45</ele>
        <time>2022-05-04T09:12:56Z</time>
      </trkpt>
      <trkpt lat="48.28812" lon="6.81698">
        <ele>575.01</ele>
        <time>2022-05-04T09:13:00Z</time>
      </trkpt>
      <trkpt lat="48.28805" lon="6.8166">
        <ele>573.56</ele>
        <time>2022-05-04T09:13:03Z</time>
      </trkpt>
      <trkpt lat="48.28798" lon="6.81625">
        <ele>573.08</ele>
        <time>2022-05-04T09:13:06Z</time>
      </trkpt>
      <trkpt lat="48.2879" lon="6.81589">
        <ele>572.12</ele>
        <time>2022-05-04T09:13:09Z</time>
      </trkpt>
      <trkpt lat="48.28782" lon="6.81549">
        <ele>570.68</ele>
        <time>2022-05-04T09:13:12Z</time>
      </trkpt>
      <trkpt lat="48.28775" lon="6.81513">
        <ele>570.2</ele>
        <time>2022-05-04T09:13:15Z</time>
      </trkpt>
      <trkpt lat="48.28769" lon="6.81484">
        <ele>569.24</ele>
        <time>2022-05-04T09:13:18Z</time>
      </trkpt>
      <trkpt lat="48.28764" lon="6.81448">
        <ele>567.8</ele>
        <time>2022-05-04T09:13:50Z</time>
      </trkpt>
      <trkpt lat="48.28743" lon="6.81438">
        <ele>566.35</ele>
        <time>2022-05-04T09:14:01Z</time>
      </trkpt>
      <trkpt lat="48.28725" lon="6.8142">
        <ele>566.35</ele>
        <time>2022-05-04T09:14:09Z</time>
      </trkpt>
      <trkpt lat="48.28707" lon="6.81403">
        <ele>565.39</ele>
        <time>2022-05-04T09:14:14Z</time>
      </trkpt>
      <trkpt lat="48.2869" lon="6.81382">
        <ele>564.43</ele>
        <time>2022-05-04T09:14:19Z</time>
      </trkpt>
      <trkpt lat="48.28672" lon="6.81359">
        <ele>563.95</ele>
        <time>2022-05-04T09:14:23Z</time>
      </trkpt>
      <trkpt lat="48.28653" lon="6.81336">
        <ele>562.99</ele>
        <time>2022-05-04T09:14:27Z</time>
      </trkpt>
      <trkpt lat="48.28638" lon="6.81319">
        <ele>562.51</ele>
        <time>2022-05-04T09:14:30Z</time>
      </trkpt>
      <trkpt lat="48.2862" lon="6.81292">
        <ele>561.55</ele>
        <time>2022-05-04T09:14:34Z</time>
      </trkpt>
      <trkpt lat="48.28611" lon="6.81268">
        <ele>561.55</ele>
        <time>2022-05-04T09:14:37Z</time>
      </trkpt>
      <trkpt lat="48.28603" lon="6.8124">
        <ele>559.14</ele>
        <time>2022-05-04T09:14:40Z</time>
      </trkpt>
      <trkpt lat="48.28593" lon="6.81212">
        <ele>557.22</ele>
        <time>2022-05-04T09:14:43Z</time>
      </trkpt>
      <trkpt lat="48.28579" lon="6.81183">
        <ele>554.82</ele>
        <time>2022-05-04T09:14:46Z</time>
      </trkpt>
      <trkpt lat="48.28565" lon="6.81151">
        <ele>552.9</ele>
        <time>2022-05-04T09:14:49Z</time>
      </trkpt>
      <trkpt lat="48.28549" lon="6.81118">
        <ele>550.49</ele>
        <time>2022-05-04T09:14:52Z</time>
      </trkpt>
      <trkpt lat="48.28533" lon="6.81085">
        <ele>547.13</ele>
        <time>2022-05-04T09:14:55Z</time>
      </trkpt>
      <trkpt lat="48.28519" lon="6.81052">
        <ele>544.72</ele>
        <time>2022-05-04T09:14:58Z</time>
      </trkpt>
      <trkpt lat="48.28504" lon="6.81019">
        <ele>541.84</ele>
        <time>2022-05-04T09:15:01Z</time>
      </trkpt>
      <trkpt lat="48.28494" lon="6.80997">
        <ele>539.92</ele>
        <time>2022-05-04T09:15:03Z</time>
      </trkpt>
      <trkpt lat="48.28483" lon="6.80974">
        <ele>537.99</ele>
        <time>2022-05-04T09:15:05Z</time>
      </trkpt>
      <trkpt lat="48.28472" lon="6.80952">
        <ele>535.59</ele>
        <time>2022-05-04T09:15:07Z</time>
      </trkpt>
      <trkpt lat="48.2846" lon="6.80928">
        <ele>533.67</ele>
        <time>2022-05-04T09:15:09Z</time>
      </trkpt>
      <trkpt lat="48.2845" lon="6.80903">
        <ele>532.23</ele>
        <time>2022-05-04T09:15:11Z</time>
      </trkpt>
      <trkpt lat="48.28441" lon="6.80877">
        <ele>530.79</ele>
        <time>2022-05-04T09:15:13Z</time>
      </trkpt>
      <trkpt lat="48.28432" lon="6.80852">
        <ele>529.34</ele>
        <time>2022-05-04T09:15:15Z</time>
      </trkpt>
      <trkpt lat="48.28424" lon="6.80825">
        <ele>527.9</ele>
        <time>2022-05-04T09:15:17Z</time>
      </trkpt>
      <trkpt lat="48.28414" lon="6.80789">
        <ele>525.98</ele>
        <time>2022-05-04T09:15:20Z</time>
      </trkpt>
      <trkpt lat="48.2841" lon="6.80752">
        <ele>524.06</ele>
        <time>2022-05-04T09:15:23Z</time>
      </trkpt>
      <trkpt lat="48.28411" lon="6.8071">
        <ele>523.09</ele>
        <time>2022-05-04T09:15:26Z</time>
      </trkpt>
      <trkpt lat="48.28415" lon="6.80671">
        <ele>521.65</ele>
        <time>2022-05-04T09:15:29Z</time>
      </trkpt>
      <trkpt lat="48.28427" lon="6.80642">
        <ele>520.21</ele>
        <time>2022-05-04T09:15:32Z</time>
      </trkpt>
      <trkpt lat="48.28446" lon="6.80628">
        <ele>520.21</ele>
        <time>2022-05-04T09:15:35Z</time>
      </trkpt>
      <trkpt lat="48.28468" lon="6.8062">
        <ele>521.17</ele>
        <time>2022-05-04T09:15:39Z</time>
      </trkpt>
      <trkpt lat="48.28487" lon="6.80612">
        <ele>523.09</ele>
        <time>2022-05-04T09:15:45Z</time>
      </trkpt>
      <trkpt lat="48.28506" lon="6.80596">
        <ele>526.94</ele>
        <time>2022-05-04T09:15:54Z</time>
      </trkpt>
      <trkpt lat="48.28528" lon="6.80573">
        <ele>530.79</ele>
        <time>2022-05-04T09:16:05Z</time>
      </trkpt>
      <trkpt lat="48.28547" lon="6.80548">
        <ele>534.15</ele>
        <time>2022-05-04T09:16:13Z</time>
      </trkpt>
      <trkpt lat="48.28562" lon="6.80522">
        <ele>535.59</ele>
        <time>2022-05-04T09:16:23Z</time>
      </trkpt>
      <trkpt lat="48.28579" lon="6.80497">
        <ele>537.03</ele>
        <time>2022-05-04T09:16:33Z</time>
      </trkpt>
      <trkpt lat="48.28592" lon="6.80471">
        <ele>537.99</ele>
        <time>2022-05-04T09:16:42Z</time>
      </trkpt>
      <trkpt lat="48.28602" lon="6.80442">
        <ele>538.96</ele>
        <time>2022-05-04T09:16:53Z</time>
      </trkpt>
      <trkpt lat="48.28611" lon="6.80407">
        <ele>538.96</ele>
        <time>2022-05-04T09:17:05Z</time>
      </trkpt>
      <trkpt lat="48.28618" lon="6.80375">
        <ele>539.92</ele>
        <time>2022-05-04T09:17:14Z</time>
      </trkpt>
      <trkpt lat="48.2863" lon="6.80348">
        <ele>538.96</ele>
        <time>2022-05-04T09:17:21Z</time>
      </trkpt>
      <trkpt lat="48.28639" lon="6.80319">
        <ele>538.48</ele>
        <time>2022-05-04T09:17:27Z</time>
      </trkpt>
      <trkpt lat="48.28644" lon="6.8029">
        <ele>537.99</ele>
        <time>2022-05-04T09:17:32Z</time>
      </trkpt>
      <trkpt lat="48.28644" lon="6.80258">
        <ele>537.03</ele>
        <time>2022-05-04T09:17:37Z</time>
      </trkpt>
      <trkpt lat="48.2864" lon="6.80225">
        <ele>536.55</ele>
        <time>2022-05-04T09:17:42Z</time>
      </trkpt>
      <trkpt lat="48.2863" lon="6.80194">
        <ele>536.55</ele>
        <time>2022-05-04T09:17:47Z</time>
      </trkpt>
      <trkpt lat="48.28615" lon="6.80168">
        <ele>536.55</ele>
        <time>2022-05-04T09:17:52Z</time>
      </trkpt>
      <trkpt lat="48.286" lon="6.80143">
        <ele>537.03</ele>
        <time>2022-05-04T09:17:57Z</time>
      </trkpt>
      <trkpt lat="48.28587" lon="6.80121">
        <ele>537.99</ele>
        <time>2022-05-04T09:18:02Z</time>
      </trkpt>
      <trkpt lat="48.28573" lon="6.80095">
        <ele>539.44</ele>
        <time>2022-05-04T09:18:08Z</time>
      </trkpt>
      <trkpt lat="48.28561" lon="6.80069">
        <ele>539.92</ele>
        <time>2022-05-04T09:18:14Z</time>
      </trkpt>
      <trkpt lat="48.28559" lon="6.80039">
        <ele>539.44</ele>
        <time>2022-05-04T09:18:19Z</time>
      </trkpt>
      <trkpt lat="48.28571" lon="6.80017">
        <ele>538.96</ele>
        <time>2022-05-04T09:18:24Z</time>
      </trkpt>
      <trkpt lat="48.28586" lon="6.79988">
        <ele>538.96</ele>
        <time>2022-05-04T09:18:28Z</time>
      </trkpt>
      <trkpt lat="48.28596" lon="6.79957">
        <ele>537.51</ele>
        <time>2022-05-04T09:18:32Z</time>
      </trkpt>
      <trkpt lat="48.28601" lon="6.7992">
        <ele>535.11</ele>
        <time>2022-05-04T09:18:36Z</time>
      </trkpt>
      <trkpt lat="48.28606" lon="6.79891">
        <ele>535.11</ele>
        <time>2022-05-04T09:18:39Z</time>
      </trkpt>
      <trkpt lat="48.28612" lon="6.79859">
        <ele>534.15</ele>
        <time>2022-05-04T09:18:42Z</time>
      </trkpt>
      <trkpt lat="48.2862" lon="6.7983">
        <ele>533.67</ele>
        <time>2022-05-04T09:18:45Z</time>
      </trkpt>
      <trkpt lat="48.2863" lon="6.79804">
        <ele>533.67</ele>
        <time>2022-05-04T09:18:48Z</time>
      </trkpt>
      <trkpt lat="48.28642" lon="6.79778">
        <ele>532.71</ele>
        <time>2022-05-04T09:18:51Z</time>
      </trkpt>
      <trkpt lat="48.28654" lon="6.7975">
        <ele>532.23</ele>
        <time>2022-05-04T09:18:54Z</time>
      </trkpt>
      <trkpt lat="48.28663" lon="6.7972">
        <ele>531.27</ele>
        <time>2022-05-04T09:18:57Z</time>
      </trkpt>
      <trkpt lat="48.28671" lon="6.79691">
        <ele>530.3</ele>
        <time>2022-05-04T09:19:00Z</time>
      </trkpt>
      <trkpt lat="48.28681" lon="6.79662">
        <ele>528.38</ele>
        <time>2022-05-04T09:19:03Z</time>
      </trkpt>
      <trkpt lat="48.28696" lon="6.7964">
        <ele>528.38</ele>
        <time>2022-05-04T09:19:06Z</time>
      </trkpt>
      <trkpt lat="48.28712" lon="6.7962">
        <ele>527.9</ele>
        <time>2022-05-04T09:19:09Z</time>
      </trkpt>
      <trkpt lat="48.28737" lon="6.79602">
        <ele>527.9</ele>
        <time>2022-05-04T09:19:13Z</time>
      </trkpt>
      <trkpt lat="48.28761" lon="6.79595">
        <ele>527.42</ele>
        <time>2022-05-04T09:19:17Z</time>
      </trkpt>
      <trkpt lat="48.28787" lon="6.79592">
        <ele>527.42</ele>
        <time>2022-05-04T09:19:21Z</time>
      </trkpt>
      <trkpt lat="48.28809" lon="6.79587">
        <ele>526.46</ele>
        <time>2022-05-04T09:19:24Z</time>
      </trkpt>
      <trkpt lat="48.28828" lon="6.79568">
        <ele>525.5</ele>
        <time>2022-05-04T09:19:27Z</time>
      </trkpt>
      <trkpt lat="48.28841" lon="6.79539">
        <ele>524.54</ele>
        <time>2022-05-04T09:19:30Z</time>
      </trkpt>
      <trkpt lat="48.28847" lon="6.79507">
        <ele>523.09</ele>
        <time>2022-05-04T09:19:33Z</time>
      </trkpt>
      <trkpt lat="48.28851" lon="6.7947">
        <ele>522.61</ele>
        <time>2022-05-04T09:19:36Z</time>
      </trkpt>
      <trkpt lat="48.28849" lon="6.79431">
        <ele>521.65</ele>
        <time>2022-05-04T09:19:39Z</time>
      </trkpt>
      <trkpt lat="48.28842" lon="6.79393">
        <ele>521.17</ele>
        <time>2022-05-04T09:19:42Z</time>
      </trkpt>
      <trkpt lat="48.28838" lon="6.79356">
        <ele>519.73</ele>
        <time>2022-05-04T09:19:45Z</time>
      </trkpt>
      <trkpt lat="48.28834" lon="6.79322">
        <ele>518.77</ele>
        <time>2022-05-04T09:19:48Z</time>
      </trkpt>
      <trkpt lat="48.28828" lon="6.79287">
        <ele>517.81</ele>
        <time>2022-05-04T09:19:51Z</time>
      </trkpt>
      <trkpt lat="48.28817" lon="6.79255">
        <ele>517.33</ele>
        <time>2022-05-04T09:19:54Z</time>
      </trkpt>
      <trkpt lat="48.28804" lon="6.7923">
        <ele>516.37</ele>
        <time>2022-05-04T09:19:57Z</time>
      </trkpt>
      <trkpt lat="48.28787" lon="6.79204">
        <ele>515.88</ele>
        <time>2022-05-04T09:20:01Z</time>
      </trkpt>
      <trkpt lat="48.28774" lon="6.79172">
        <ele>514.44</ele>
        <time>2022-05-04T09:20:05Z</time>
      </trkpt>
      <trkpt lat="48.28765" lon="6.79145">
        <ele>515.4</ele>
        <time>2022-05-04T09:20:08Z</time>
      </trkpt>
      <trkpt lat="48.28758" lon="6.79116">
        <ele>514.44</ele>
        <time>2022-05-04T09:20:11Z</time>
      </trkpt>
      <trkpt lat="48.28749" lon="6.79087">
        <ele>514.44</ele>
        <time>2022-05-04T09:20:14Z</time>
      </trkpt>
      <trkpt lat="48.2874" lon="6.79061">
        <ele>513.96</ele>
        <time>2022-05-04T09:20:17Z</time>
      </trkpt>
      <trkpt lat="48.28729" lon="6.79038">
        <ele>513.96</ele>
        <time>2022-05-04T09:20:20Z</time>
      </trkpt>
      <trkpt lat="48.28714" lon="6.79014">
        <ele>513.48</ele>
        <time>2022-05-04T09:20:24Z</time>
      </trkpt>
      <trkpt lat="48.28698" lon="6.78987">
        <ele>512.52</ele>
        <time>2022-05-04T09:20:28Z</time>
      </trkpt>
      <trkpt lat="48.28689" lon="6.78958">
        <ele>512.04</ele>
        <time>2022-05-04T09:20:32Z</time>
      </trkpt>
      <trkpt lat="48.28707" lon="6.78933">
        <ele>512.04</ele>
        <time>2022-05-04T09:20:37Z</time>
      </trkpt>
      <trkpt lat="48.2873" lon="6.78921">
        <ele>512.04</ele>
        <time>2022-05-04T09:20:41Z</time>
      </trkpt>
      <trkpt lat="48.28755" lon="6.7891">
        <ele>510.6</ele>
        <time>2022-05-04T09:20:45Z</time>
      </trkpt>
      <trkpt lat="48.28775" lon="6.78901">
        <ele>509.64</ele>
        <time>2022-05-04T09:20:48Z</time>
      </trkpt>
      <trkpt lat="48.28792" lon="6.78889">
        <ele>509.16</ele>
        <time>2022-05-04T09:20:51Z</time>
      </trkpt>
      <trkpt lat="48.28811" lon="6.78871">
        <ele>508.67</ele>
        <time>2022-05-04T09:20:54Z</time>
      </trkpt>
      <trkpt lat="48.28833" lon="6.78857">
        <ele>509.16</ele>
        <time>2022-05-04T09:20:57Z</time>
      </trkpt>
      <trkpt lat="48.28853" lon="6.78847">
        <ele>509.64</ele>
        <time>2022-05-04T09:21:00Z</time>
      </trkpt>
      <trkpt lat="48.28874" lon="6.78841">
        <ele>510.12</ele>
        <time>2022-05-04T09:21:03Z</time>
      </trkpt>
      <trkpt lat="48.28897" lon="6.78845">
        <ele>510.12</ele>
        <time>2022-05-04T09:21:07Z</time>
      </trkpt>
      <trkpt lat="48.28921" lon="6.78858">
        <ele>510.6</ele>
        <time>2022-05-04T09:21:11Z</time>
      </trkpt>
      <trkpt lat="48.28944" lon="6.78871">
        <ele>511.08</ele>
        <time>2022-05-04T09:21:15Z</time>
      </trkpt>
      <trkpt lat="48.28967" lon="6.78886">
        <ele>511.08</ele>
        <time>2022-05-04T09:21:19Z</time>
      </trkpt>
      <trkpt lat="48.28988" lon="6.78897">
        <ele>512.04</ele>
        <time>2022-05-04T09:21:23Z</time>
      </trkpt>
      <trkpt lat="48.29013" lon="6.78904">
        <ele>511.56</ele>
        <time>2022-05-04T09:21:27Z</time>
      </trkpt>
      <trkpt lat="48.29033" lon="6.78908">
        <ele>511.56</ele>
        <time>2022-05-04T09:21:30Z</time>
      </trkpt>
      <trkpt lat="48.29053" lon="6.7891">
        <ele>510.12</ele>
        <time>2022-05-04T09:21:33Z</time>
      </trkpt>
      <trkpt lat="48.29071" lon="6.78895">
        <ele>509.64</ele>
        <time>2022-05-04T09:21:37Z</time>
      </trkpt>
      <trkpt lat="48.29083" lon="6.78875">
        <ele>509.16</ele>
        <time>2022-05-04T09:21:40Z</time>
      </trkpt>
      <trkpt lat="48.29092" lon="6.78841">
        <ele>508.19</ele>
        <time>2022-05-04T09:21:44Z</time>
      </trkpt>
      <trkpt lat="48.29105" lon="6.78806">
        <ele>508.19</ele>
        <time>2022-05-04T09:21:49Z</time>
      </trkpt>
      <trkpt lat="48.29114" lon="6.78772">
        <ele>508.19</ele>
        <time>2022-05-04T09:21:54Z</time>
      </trkpt>
      <trkpt lat="48.29133" lon="6.78757">
        <ele>507.71</ele>
        <time>2022-05-04T09:22:00Z</time>
      </trkpt>
      <trkpt lat="48.29155" lon="6.78745">
        <ele>506.75</ele>
        <time>2022-05-04T09:22:05Z</time>
      </trkpt>
      <trkpt lat="48.29174" lon="6.78735">
        <ele>505.79</ele>
        <time>2022-05-04T09:22:09Z</time>
      </trkpt>
      <trkpt lat="48.29198" lon="6.7873">
        <ele>505.31</ele>
        <time>2022-05-04T09:22:14Z</time>
      </trkpt>
      <trkpt lat="48.29222" lon="6.78727">
        <ele>505.79</ele>
        <time>2022-05-04T09:22:18Z</time>
      </trkpt>
      <trkpt lat="48.29247" lon="6.78727">
        <ele>505.31</ele>
        <time>2022-05-04T09:22:22Z</time>
      </trkpt>
      <trkpt lat="48.29268" lon="6.78731">
        <ele>503.87</ele>
        <time>2022-05-04T09:22:25Z</time>
      </trkpt>
      <trkpt lat="48.29289" lon="6.78733">
        <ele>503.39</ele>
        <time>2022-05-04T09:22:28Z</time>
      </trkpt>
      <trkpt lat="48.29312" lon="6.78734">
        <ele>503.39</ele>
        <time>2022-05-04T09:22:31Z</time>
      </trkpt>
      <trkpt lat="48.29334" lon="6.78742">
        <ele>502.91</ele>
        <time>2022-05-04T09:22:35Z</time>
      </trkpt>
      <trkpt lat="48.29356" lon="6.78757">
        <ele>503.39</ele>
        <time>2022-05-04T09:22:39Z</time>
      </trkpt>
      <trkpt lat="48.29381" lon="6.78775">
        <ele>503.39</ele>
        <time>2022-05-04T09:22:43Z</time>
      </trkpt>
      <trkpt lat="48.29401" lon="6.78791">
        <ele>503.39</ele>
        <time>2022-05-04T09:22:46Z</time>
      </trkpt>
      <trkpt lat="48.29422" lon="6.78806">
        <ele>503.87</ele>
        <time>2022-05-04T09:22:50Z</time>
      </trkpt>
      <trkpt lat="48.29439" lon="6.78823">
        <ele>504.35</ele>
        <time>2022-05-04T09:22:54Z</time>
      </trkpt>
      <trkpt lat="48.29456" lon="6.7884">
        <ele>504.83</ele>
        <time>2022-05-04T09:22:58Z</time>
      </trkpt>
      <trkpt lat="48.29474" lon="6.78864">
        <ele>505.31</ele>
        <time>2022-05-04T09:23:02Z</time>
      </trkpt>
      <trkpt lat="48.2949" lon="6.78886">
        <ele>505.31</ele>
        <time>2022-05-04T09:23:06Z</time>
      </trkpt>
      <trkpt lat="48.29505" lon="6.78907">
        <ele>505.31</ele>
        <time>2022-05-04T09:23:10Z</time>
      </trkpt>
      <trkpt lat="48.29521" lon="6.78927">
        <ele>506.75</ele>
        <time>2022-05-04T09:23:14Z</time>
      </trkpt>
      <trkpt lat="48.29534" lon="6.7895">
        <ele>508.19</ele>
        <time>2022-05-04T09:23:19Z</time>
      </trkpt>
      <trkpt lat="48.29541" lon="6.78984">
        <ele>508.67</ele>
        <time>2022-05-04T09:23:28Z</time>
      </trkpt>
      <trkpt lat="48.2954" lon="6.79029">
        <ele>509.16</ele>
        <time>2022-05-04T09:23:37Z</time>
      </trkpt>
      <trkpt lat="48.29545" lon="6.79071">
        <ele>509.64</ele>
        <time>2022-05-04T09:23:45Z</time>
      </trkpt>
      <trkpt lat="48.29546" lon="6.79106">
        <ele>510.12</ele>
        <time>2022-05-04T09:23:52Z</time>
      </trkpt>
      <trkpt lat="48.29549" lon="6.79136">
        <ele>510.6</ele>
        <time>2022-05-04T09:23:59Z</time>
      </trkpt>
      <trkpt lat="48.29548" lon="6.79169">
        <ele>511.08</ele>
        <time>2022-05-04T09:24:05Z</time>
      </trkpt>
      <trkpt lat="48.29553" lon="6.792">
        <ele>511.56</ele>
        <time>2022-05-04T09:24:11Z</time>
      </trkpt>
      <trkpt lat="48.29561" lon="6.79229">
        <ele>512.04</ele>
        <time>2022-05-04T09:24:17Z</time>
      </trkpt>
      <trkpt lat="48.29576" lon="6.79252">
        <ele>512.52</ele>
        <time>2022-05-04T09:24:23Z</time>
      </trkpt>
      <trkpt lat="48.29591" lon="6.79269">
        <ele>513</ele>
        <time>2022-05-04T09:24:29Z</time>
      </trkpt>
      <trkpt lat="48.29598" lon="6.79299">
        <ele>513</ele>
        <time>2022-05-04T09:24:35Z</time>
      </trkpt>
      <trkpt lat="48.2961" lon="6.79324">
        <ele>513</ele>
        <time>2022-05-04T09:24:41Z</time>
      </trkpt>
      <trkpt lat="48.29628" lon="6.79342">
        <ele>513.48</ele>
        <time>2022-05-04T09:24:46Z</time>
      </trkpt>
      <trkpt lat="48.29644" lon="6.79357">
        <ele>513.96</ele>
        <time>2022-05-04T09:24:51Z</time>
      </trkpt>
      <trkpt lat="48.2963" lon="6.79407">
        <ele>514.44</ele>
        <time>2022-05-04T09:24:57Z</time>
      </trkpt>
      <trkpt lat="48.29643" lon="6.79432">
        <ele>514.92</ele>
        <time>2022-05-04T09:25:03Z</time>
      </trkpt>
      <trkpt lat="48.29657" lon="6.79463">
        <ele>515.88</ele>
        <time>2022-05-04T09:25:09Z</time>
      </trkpt>
      <trkpt lat="48.29667" lon="6.7949">
        <ele>515.88</ele>
        <time>2022-05-04T09:25:15Z</time>
      </trkpt>
      <trkpt lat="48.29676" lon="6.79517">
        <ele>516.37</ele>
        <time>2022-05-04T09:25:22Z</time>
      </trkpt>
      <trkpt lat="48.29684" lon="6.79551">
        <ele>516.37</ele>
        <time>2022-05-04T09:25:29Z</time>
      </trkpt>
      <trkpt lat="48.29685" lon="6.79591">
        <ele>516.85</ele>
        <time>2022-05-04T09:25:35Z</time>
      </trkpt>
      <trkpt lat="48.29684" lon="6.79627">
        <ele>517.33</ele>
        <time>2022-05-04T09:25:40Z</time>
      </trkpt>
      <trkpt lat="48.29686" lon="6.79659">
        <ele>517.81</ele>
        <time>2022-05-04T09:25:45Z</time>
      </trkpt>
      <trkpt lat="48.29697" lon="6.79684">
        <ele>517.33</ele>
        <time>2022-05-04T09:25:50Z</time>
      </trkpt>
      <trkpt lat="48.29711" lon="6.79705">
        <ele>517.81</ele>
        <time>2022-05-04T09:25:55Z</time>
      </trkpt>
      <trkpt lat="48.29723" lon="6.79729">
        <ele>517.81</ele>
        <time>2022-05-04T09:26:00Z</time>
      </trkpt>
      <trkpt lat="48.29736" lon="6.79752">
        <ele>517.81</ele>
        <time>2022-05-04T09:26:05Z</time>
      </trkpt>
      <trkpt lat="48.29748" lon="6.79775">
        <ele>517.81</ele>
        <time>2022-05-04T09:26:10Z</time>
      </trkpt>
      <trkpt lat="48.29761" lon="6.79796">
        <ele>517.81</ele>
        <time>2022-05-04T09:26:15Z</time>
      </trkpt>
      <trkpt lat="48.29772" lon="6.79821">
        <ele>518.29</ele>
        <time>2022-05-04T09:26:20Z</time>
      </trkpt>
      <trkpt lat="48.2978" lon="6.79847">
        <ele>518.29</ele>
        <time>2022-05-04T09:26:25Z</time>
      </trkpt>
      <trkpt lat="48.29791" lon="6.79869">
        <ele>518.77</ele>
        <time>2022-05-04T09:26:30Z</time>
      </trkpt>
      <trkpt lat="48.29803" lon="6.79896">
        <ele>519.25</ele>
        <time>2022-05-04T09:26:36Z</time>
      </trkpt>
      <trkpt lat="48.29813" lon="6.79924">
        <ele>520.21</ele>
        <time>2022-05-04T09:26:42Z</time>
      </trkpt>
      <trkpt lat="48.29813" lon="6.79956">
        <ele>520.21</ele>
        <time>2022-05-04T09:26:48Z</time>
      </trkpt>
      <trkpt lat="48.29803" lon="6.79987">
        <ele>519.25</ele>
        <time>2022-05-04T09:26:53Z</time>
      </trkpt>
      <trkpt lat="48.29798" lon="6.80022">
        <ele>517.33</ele>
        <time>2022-05-04T09:26:57Z</time>
      </trkpt>
      <trkpt lat="48.29796" lon="6.80052">
        <ele>516.85</ele>
        <time>2022-05-04T09:27:00Z</time>
      </trkpt>
      <trkpt lat="48.29796" lon="6.80083">
        <ele>516.37</ele>
        <time>2022-05-04T09:27:03Z</time>
      </trkpt>
      <trkpt lat="48.298" lon="6.80113">
        <ele>514.44</ele>
        <time>2022-05-04T09:27:06Z</time>
      </trkpt>
      <trkpt lat="48.29807" lon="6.80144">
        <ele>513</ele>
        <time>2022-05-04T09:27:09Z</time>
      </trkpt>
      <trkpt lat="48.2982" lon="6.80173">
        <ele>510.6</ele>
        <time>2022-05-04T09:27:12Z</time>
      </trkpt>
      <trkpt lat="48.29834" lon="6.80202">
        <ele>507.71</ele>
        <time>2022-05-04T09:27:15Z</time>
      </trkpt>
      <trkpt lat="48.29853" lon="6.80234">
        <ele>504.35</ele>
        <time>2022-05-04T09:27:18Z</time>
      </trkpt>
      <trkpt lat="48.29867" lon="6.80255">
        <ele>502.43</ele>
        <time>2022-05-04T09:27:20Z</time>
      </trkpt>
      <trkpt lat="48.29884" lon="6.80274">
        <ele>500.5</ele>
        <time>2022-05-04T09:27:22Z</time>
      </trkpt>
      <trkpt lat="48.29899" lon="6.80293">
        <ele>498.58</ele>
        <time>2022-05-04T09:27:24Z</time>
      </trkpt>
      <trkpt lat="48.29915" lon="6.8031">
        <ele>496.18</ele>
        <time>2022-05-04T09:27:26Z</time>
      </trkpt>
      <trkpt lat="48.29939" lon="6.80332">
        <ele>493.29</ele>
        <time>2022-05-04T09:27:29Z</time>
      </trkpt>
      <trkpt lat="48.29962" lon="6.80348">
        <ele>489.93</ele>
        <time>2022-05-04T09:27:32Z</time>
      </trkpt>
      <trkpt lat="48.29987" lon="6.80359">
        <ele>488.01</ele>
        <time>2022-05-04T09:27:35Z</time>
      </trkpt>
      <trkpt lat="48.30013" lon="6.80358">
        <ele>485.12</ele>
        <time>2022-05-04T09:27:38Z</time>
      </trkpt>
      <trkpt lat="48.30032" lon="6.80342">
        <ele>483.2</ele>
        <time>2022-05-04T09:27:41Z</time>
      </trkpt>
      <trkpt lat="48.30048" lon="6.80312">
        <ele>481.76</ele>
        <time>2022-05-04T09:27:43Z</time>
      </trkpt>
      <trkpt lat="48.30059" lon="6.80284">
        <ele>480.32</ele>
        <time>2022-05-04T09:27:45Z</time>
      </trkpt>
      <trkpt lat="48.30068" lon="6.80256">
        <ele>478.87</ele>
        <time>2022-05-04T09:27:47Z</time>
      </trkpt>
      <trkpt lat="48.30077" lon="6.80227">
        <ele>475.99</ele>
        <time>2022-05-04T09:27:49Z</time>
      </trkpt>
      <trkpt lat="48.3009" lon="6.80194">
        <ele>474.07</ele>
        <time>2022-05-04T09:27:51Z</time>
      </trkpt>
      <trkpt lat="48.301" lon="6.80164">
        <ele>472.14</ele>
        <time>2022-05-04T09:27:53Z</time>
      </trkpt>
      <trkpt lat="48.30107" lon="6.80133">
        <ele>470.22</ele>
        <time>2022-05-04T09:27:55Z</time>
      </trkpt>
      <trkpt lat="48.30113" lon="6.80101">
        <ele>468.3</ele>
        <time>2022-05-04T09:27:57Z</time>
      </trkpt>
      <trkpt lat="48.30118" lon="6.80068">
        <ele>466.38</ele>
        <time>2022-05-04T09:27:59Z</time>
      </trkpt>
      <trkpt lat="48.30122" lon="6.80035">
        <ele>464.45</ele>
        <time>2022-05-04T09:28:01Z</time>
      </trkpt>
      <trkpt lat="48.30123" lon="6.80004">
        <ele>462.53</ele>
        <time>2022-05-04T09:28:03Z</time>
      </trkpt>
      <trkpt lat="48.30122" lon="6.79963">
        <ele>460.13</ele>
        <time>2022-05-04T09:28:06Z</time>
      </trkpt>
      <trkpt lat="48.30113" lon="6.79926">
        <ele>457.72</ele>
        <time>2022-05-04T09:28:09Z</time>
      </trkpt>
      <trkpt lat="48.30101" lon="6.79892">
        <ele>455.8</ele>
        <time>2022-05-04T09:28:12Z</time>
      </trkpt>
      <trkpt lat="48.30084" lon="6.79863">
        <ele>452.92</ele>
        <time>2022-05-04T09:28:15Z</time>
      </trkpt>
      <trkpt lat="48.30064" lon="6.79838">
        <ele>449.55</ele>
        <time>2022-05-04T09:28:18Z</time>
      </trkpt>
      <trkpt lat="48.30046" lon="6.79814">
        <ele>447.63</ele>
        <time>2022-05-04T09:28:21Z</time>
      </trkpt>
      <trkpt lat="48.30031" lon="6.79784">
        <ele>444.75</ele>
        <time>2022-05-04T09:28:24Z</time>
      </trkpt>
      <trkpt lat="48.30021" lon="6.79753">
        <ele>441.38</ele>
        <time>2022-05-04T09:28:27Z</time>
      </trkpt>
      <trkpt lat="48.30021" lon="6.79726">
        <ele>438.98</ele>
        <time>2022-05-04T09:28:31Z</time>
      </trkpt>
      <trkpt lat="48.3004" lon="6.79739">
        <ele>434.65</ele>
        <time>2022-05-04T09:28:37Z</time>
      </trkpt>
      <trkpt lat="48.30062" lon="6.79757">
        <ele>432.25</ele>
        <time>2022-05-04T09:28:41Z</time>
      </trkpt>
      <trkpt lat="48.30085" lon="6.79763">
        <ele>429.37</ele>
        <time>2022-05-04T09:28:44Z</time>
      </trkpt>
      <trkpt lat="48.30106" lon="6.79758">
        <ele>426.96</ele>
        <time>2022-05-04T09:28:47Z</time>
      </trkpt>
      <trkpt lat="48.30128" lon="6.79749">
        <ele>425.04</ele>
        <time>2022-05-04T09:28:51Z</time>
      </trkpt>
      <trkpt lat="48.30148" lon="6.79743">
        <ele>424.08</ele>
        <time>2022-05-04T09:29:15Z</time>
      </trkpt>
    </trkseg>
  </trk>
</gpx>